<?xml version="1.0" encoding="UTF-8" standalone="no" ?>
<gpx xmlns="http://www.topografix.com/GPX/1/1" xmlns:xsi="http://www.w3.org/2001/XMLSchema-instance" xsi:schemaLocation="http://www.topografix.com/GPX/1/1 http://www.topografix.com/GPX/1/1/gpx.xsd" version="1.1" creator="VisuGPX - https://www.visugpx.com">
  <metadata>
    <name>Le Chameau en sens inverse</name>
    <desc><![CDATA[Parcours vers l'aqueduc emblématique nommé le Chameau. Départ de Mornant. Aller vers Soucieux en Jarrest, vers le Bas Marjon, jusqu'à Messimy. Retour vers le Chameau, Puis Taluyers.
Circuit simple, idéal pour un début de saison.]]></desc>
  </metadata>
  <trk>
    <name><![CDATA[Le Chameau en sens inverse]]></name>
    <extensions>
      <line xmlns="http://www.topografix.com/GPX/gpx_style/0/2">
        <color>0000FF</color>
        <width>4</width>
      </line>
    </extensions>
    <trkseg>
      <trkpt lat="45.61967" lon="4.67178">
        <ele>368.406192</ele>
        <time>2025-09-13T14:26:39.634Z</time>
      </trkpt>
      <trkpt lat="45.61994" lon="4.67218">
        <ele>368.406192</ele>
        <time>2025-09-13T14:26:47.417Z</time>
      </trkpt>
      <trkpt lat="45.62004" lon="4.67234">
        <ele>368.406192</ele>
        <time>2025-09-13T14:26:50.557Z</time>
      </trkpt>
      <trkpt lat="45.62012" lon="4.67245">
        <ele>368.406192</ele>
        <time>2025-09-13T14:26:52.876Z</time>
      </trkpt>
      <trkpt lat="45.6203" lon="4.67273">
        <ele>368.434954</ele>
        <time>2025-09-13T14:26:58.630Z</time>
      </trkpt>
      <trkpt lat="45.62028" lon="4.67284">
        <ele>368.565874</ele>
        <time>2025-09-13T14:27:00.385Z</time>
      </trkpt>
      <trkpt lat="45.62031" lon="4.67291">
        <ele>368.656006</ele>
        <time>2025-09-13T14:27:01.599Z</time>
      </trkpt>
      <trkpt lat="45.62038" lon="4.67293">
        <ele>368.776148</ele>
        <time>2025-09-13T14:27:03.237Z</time>
      </trkpt>
      <trkpt lat="45.62043" lon="4.67289">
        <ele>368.858951</ele>
        <time>2025-09-13T14:27:04.367Z</time>
      </trkpt>
      <trkpt lat="45.62045" lon="4.67283">
        <ele>368.928519</ele>
        <time>2025-09-13T14:27:05.318Z</time>
      </trkpt>
      <trkpt lat="45.62043" lon="4.67275">
        <ele>369.030933</ele>
        <time>2025-09-13T14:27:06.713Z</time>
      </trkpt>
      <trkpt lat="45.62089" lon="4.67214">
        <ele>370.057412</ele>
        <time>2025-09-13T14:27:20.750Z</time>
      </trkpt>
      <trkpt lat="45.62129" lon="4.6716">
        <ele>370.953826</ele>
        <time>2025-09-13T14:27:32.954Z</time>
      </trkpt>
      <trkpt lat="45.62134" lon="4.67154">
        <ele>371.0595</ele>
        <time>2025-09-13T14:27:34.445Z</time>
      </trkpt>
      <trkpt lat="45.62151" lon="4.67134">
        <ele>371.350513</ele>
        <time>2025-09-13T14:27:39.295Z</time>
      </trkpt>
      <trkpt lat="45.62151" lon="4.67134">
        <ele>371.350513</ele>
        <time>2025-09-13T14:27:39.320Z</time>
      </trkpt>
      <trkpt lat="45.6215" lon="4.67148">
        <ele>371.345892</ele>
        <time>2025-09-13T14:27:43.569Z</time>
      </trkpt>
      <trkpt lat="45.62166" lon="4.6713">
        <ele>371.336237</ele>
        <time>2025-09-13T14:27:52.445Z</time>
      </trkpt>
      <trkpt lat="45.62174" lon="4.67121">
        <ele>371.331626</ele>
        <time>2025-09-13T14:27:56.685Z</time>
      </trkpt>
      <trkpt lat="45.62182" lon="4.67113">
        <ele>371.327157</ele>
        <time>2025-09-13T14:28:00.793Z</time>
      </trkpt>
      <trkpt lat="45.62189" lon="4.67104">
        <ele>371.322623</ele>
        <time>2025-09-13T14:28:04.961Z</time>
      </trkpt>
      <trkpt lat="45.62198" lon="4.67096">
        <ele>371.317868</ele>
        <time>2025-09-13T14:28:09.333Z</time>
      </trkpt>
      <trkpt lat="45.62208" lon="4.67102">
        <ele>371.312773</ele>
        <time>2025-09-13T14:28:14.017Z</time>
      </trkpt>
      <trkpt lat="45.62217" lon="4.67107">
        <ele>371.308207</ele>
        <time>2025-09-13T14:28:18.215Z</time>
      </trkpt>
      <trkpt lat="45.62225" lon="4.67113">
        <ele>371.303851</ele>
        <time>2025-09-13T14:28:22.220Z</time>
      </trkpt>
      <trkpt lat="45.62234" lon="4.67121">
        <ele>371.298977</ele>
        <time>2025-09-13T14:28:26.700Z</time>
      </trkpt>
      <trkpt lat="45.62242" lon="4.6713">
        <ele>371.294168</ele>
        <time>2025-09-13T14:28:31.121Z</time>
      </trkpt>
      <trkpt lat="45.62253" lon="4.67125">
        <ele>371.288724</ele>
        <time>2025-09-13T14:28:36.126Z</time>
      </trkpt>
      <trkpt lat="45.62263" lon="4.67122">
        <ele>371.284048</ele>
        <time>2025-09-13T14:28:40.425Z</time>
      </trkpt>
      <trkpt lat="45.62273" lon="4.67117">
        <ele>371.279042</ele>
        <time>2025-09-13T14:28:45.027Z</time>
      </trkpt>
      <trkpt lat="45.62271" lon="4.67113">
        <ele>371.277535</ele>
        <time>2025-09-13T14:28:46.413Z</time>
      </trkpt>
      <trkpt lat="45.62271" lon="4.67113">
        <ele>371.277535</ele>
        <time>2025-09-13T14:28:46.441Z</time>
      </trkpt>
      <trkpt lat="45.62272" lon="4.67112">
        <ele>371.276805</ele>
        <time>2025-09-13T14:28:47.539Z</time>
      </trkpt>
      <trkpt lat="45.62307" lon="4.67112">
        <ele>370.64337</ele>
        <time>2025-09-13T14:29:11.541Z</time>
      </trkpt>
      <trkpt lat="45.62351" lon="4.67116">
        <ele>369.042361</ele>
        <time>2025-09-13T14:29:42.272Z</time>
      </trkpt>
      <trkpt lat="45.62373" lon="4.67117">
        <ele>368.250974</ele>
        <time>2025-09-13T14:29:57.437Z</time>
      </trkpt>
      <trkpt lat="45.62405" lon="4.67122">
        <ele>367.065904</ele>
        <time>2025-09-13T14:30:20.189Z</time>
      </trkpt>
      <trkpt lat="45.62422" lon="4.67131">
        <ele>366.410302</ele>
        <time>2025-09-13T14:30:32.761Z</time>
      </trkpt>
      <trkpt lat="45.62458" lon="4.67151">
        <ele>365.019815</ele>
        <time>2025-09-13T14:30:59.400Z</time>
      </trkpt>
      <trkpt lat="45.62467" lon="4.67155">
        <ele>364.680631</ele>
        <time>2025-09-13T14:31:06.315Z</time>
      </trkpt>
      <trkpt lat="45.62487" lon="4.67162">
        <ele>364.112055</ele>
        <time>2025-09-13T14:31:20.062Z</time>
      </trkpt>
      <trkpt lat="45.62485" lon="4.67169">
        <ele>363.971126</ele>
        <time>2025-09-13T14:31:23.488Z</time>
      </trkpt>
      <trkpt lat="45.62488" lon="4.6717">
        <ele>363.886123</ele>
        <time>2025-09-13T14:31:25.603Z</time>
      </trkpt>
      <trkpt lat="45.62495" lon="4.67211">
        <ele>363.02768</ele>
        <time>2025-09-13T14:32:02.677Z</time>
      </trkpt>
      <trkpt lat="45.62534" lon="4.67204">
        <ele>361.891698</ele>
        <time>2025-09-13T14:32:30.238Z</time>
      </trkpt>
      <trkpt lat="45.62522" lon="4.67227">
        <ele>361.318564</ele>
        <time>2025-09-13T14:32:33.465Z</time>
      </trkpt>
      <trkpt lat="45.62533" lon="4.67228">
        <ele>361.002557</ele>
        <time>2025-09-13T14:32:35.135Z</time>
      </trkpt>
      <trkpt lat="45.62539" lon="4.67217">
        <ele>360.717735</ele>
        <time>2025-09-13T14:32:36.638Z</time>
      </trkpt>
      <trkpt lat="45.62542" lon="4.67212">
        <ele>360.604456</ele>
        <time>2025-09-13T14:32:37.289Z</time>
      </trkpt>
      <trkpt lat="45.62554" lon="4.67187">
        <ele>359.978961</ele>
        <time>2025-09-13T14:32:40.854Z</time>
      </trkpt>
      <trkpt lat="45.62565" lon="4.67199">
        <ele>359.589184</ele>
        <time>2025-09-13T14:32:43.114Z</time>
      </trkpt>
      <trkpt lat="45.62574" lon="4.6721">
        <ele>359.356715</ele>
        <time>2025-09-13T14:32:44.905Z</time>
      </trkpt>
      <trkpt lat="45.62605" lon="4.67243">
        <ele>358.58816</ele>
        <time>2025-09-13T14:32:50.731Z</time>
      </trkpt>
      <trkpt lat="45.62639" lon="4.67274">
        <ele>357.777673</ele>
        <time>2025-09-13T14:32:56.795Z</time>
      </trkpt>
      <trkpt lat="45.62656" lon="4.67296">
        <ele>357.324821</ele>
        <time>2025-09-13T14:33:00.133Z</time>
      </trkpt>
      <trkpt lat="45.62668" lon="4.6732">
        <ele>356.913935</ele>
        <time>2025-09-13T14:33:03.225Z</time>
      </trkpt>
      <trkpt lat="45.62675" lon="4.67367">
        <ele>356.250545</ele>
        <time>2025-09-13T14:33:08.675Z</time>
      </trkpt>
      <trkpt lat="45.62734" lon="4.67377">
        <ele>356.051081</ele>
        <time>2025-09-13T14:33:19.946Z</time>
      </trkpt>
      <trkpt lat="45.62753" lon="4.67385">
        <ele>356.064876</ele>
        <time>2025-09-13T14:33:23.652Z</time>
      </trkpt>
      <trkpt lat="45.62788" lon="4.67398">
        <ele>356.091485</ele>
        <time>2025-09-13T14:33:31.618Z</time>
      </trkpt>
      <trkpt lat="45.62813" lon="4.67417">
        <ele>356.112127</ele>
        <time>2025-09-13T14:33:37.907Z</time>
      </trkpt>
      <trkpt lat="45.62844" lon="4.67449">
        <ele>356.140355</ele>
        <time>2025-09-13T14:33:46.240Z</time>
      </trkpt>
      <trkpt lat="45.6288" lon="4.67497">
        <ele>356.465646</ele>
        <time>2025-09-13T14:33:56.430Z</time>
      </trkpt>
      <trkpt lat="45.62902" lon="4.67529">
        <ele>356.716024</ele>
        <time>2025-09-13T14:34:02.801Z</time>
      </trkpt>
      <trkpt lat="45.6295" lon="4.67651">
        <ele>357.496232</ele>
        <time>2025-09-13T14:34:24.648Z</time>
      </trkpt>
      <trkpt lat="45.63015" lon="4.67675">
        <ele>359.50374</ele>
        <time>2025-09-13T14:34:40.737Z</time>
      </trkpt>
      <trkpt lat="45.63017" lon="4.67676">
        <ele>359.571584</ele>
        <time>2025-09-13T14:34:41.242Z</time>
      </trkpt>
      <trkpt lat="45.63024" lon="4.67682">
        <ele>359.865724</ele>
        <time>2025-09-13T14:34:43.384Z</time>
      </trkpt>
      <trkpt lat="45.63025" lon="4.67752">
        <ele>361.551356</ele>
        <time>2025-09-13T14:34:56.172Z</time>
      </trkpt>
      <trkpt lat="45.63122" lon="4.67751">
        <ele>365.588795</ele>
        <time>2025-09-13T14:35:30.342Z</time>
      </trkpt>
      <trkpt lat="45.63168" lon="4.67754">
        <ele>368.152089</ele>
        <time>2025-09-13T14:35:47.774Z</time>
      </trkpt>
      <trkpt lat="45.63174" lon="4.67749">
        <ele>368.516661</ele>
        <time>2025-09-13T14:35:50.281Z</time>
      </trkpt>
      <trkpt lat="45.63214" lon="4.67778">
        <ele>370.999608</ele>
        <time>2025-09-13T14:36:03.934Z</time>
      </trkpt>
      <trkpt lat="45.63239" lon="4.67797">
        <ele>372.546766</ele>
        <time>2025-09-13T14:36:12.048Z</time>
      </trkpt>
      <trkpt lat="45.63252" lon="4.67811">
        <ele>373.468846</ele>
        <time>2025-09-13T14:36:16.715Z</time>
      </trkpt>
      <trkpt lat="45.63295" lon="4.67855">
        <ele>375.909589</ele>
        <time>2025-09-13T14:36:30.889Z</time>
      </trkpt>
      <trkpt lat="45.63298" lon="4.67824">
        <ele>376.914591</ele>
        <time>2025-09-13T14:36:38.354Z</time>
      </trkpt>
      <trkpt lat="45.63302" lon="4.67787">
        <ele>378.089903</ele>
        <time>2025-09-13T14:36:47.092Z</time>
      </trkpt>
      <trkpt lat="45.63307" lon="4.67772">
        <ele>378.638373</ele>
        <time>2025-09-13T14:36:51.160Z</time>
      </trkpt>
      <trkpt lat="45.63329" lon="4.67774">
        <ele>379.64358</ele>
        <time>2025-09-13T14:36:58.658Z</time>
      </trkpt>
      <trkpt lat="45.63394" lon="4.67792">
        <ele>382.657023</ele>
        <time>2025-09-13T14:37:21.454Z</time>
      </trkpt>
      <trkpt lat="45.63454" lon="4.67812">
        <ele>385.332367</ele>
        <time>2025-09-13T14:37:42.943Z</time>
      </trkpt>
      <trkpt lat="45.63503" lon="4.67822">
        <ele>387.507412</ele>
        <time>2025-09-13T14:37:59.953Z</time>
      </trkpt>
      <trkpt lat="45.63633" lon="4.67809">
        <ele>393.044233</ele>
        <time>2025-09-13T14:38:43.160Z</time>
      </trkpt>
      <trkpt lat="45.63972" lon="4.678">
        <ele>407.465672</ele>
        <time>2025-09-13T14:40:38.713Z</time>
      </trkpt>
      <trkpt lat="45.6405" lon="4.67812">
        <ele>410.523079</ele>
        <time>2025-09-13T14:40:59.462Z</time>
      </trkpt>
      <trkpt lat="45.64085" lon="4.67818">
        <ele>411.873951</ele>
        <time>2025-09-13T14:41:08.387Z</time>
      </trkpt>
      <trkpt lat="45.64168" lon="4.67826">
        <ele>414.079514</ele>
        <time>2025-09-13T14:41:29.447Z</time>
      </trkpt>
      <trkpt lat="45.64265" lon="4.67852">
        <ele>416.530818</ele>
        <time>2025-09-13T14:41:52.945Z</time>
      </trkpt>
      <trkpt lat="45.6429" lon="4.67827">
        <ele>416.766013</ele>
        <time>2025-09-13T14:41:59.295Z</time>
      </trkpt>
      <trkpt lat="45.64335" lon="4.6784">
        <ele>416.889269</ele>
        <time>2025-09-13T14:42:08.736Z</time>
      </trkpt>
      <trkpt lat="45.64343" lon="4.67843">
        <ele>416.910377</ele>
        <time>2025-09-13T14:42:10.299Z</time>
      </trkpt>
      <trkpt lat="45.64388" lon="4.6786">
        <ele>417.036663</ele>
        <time>2025-09-13T14:42:19.133Z</time>
      </trkpt>
      <trkpt lat="45.6442" lon="4.67871">
        <ele>417.125549</ele>
        <time>2025-09-13T14:42:25.183Z</time>
      </trkpt>
      <trkpt lat="45.64462" lon="4.67885">
        <ele>417.377266</ele>
        <time>2025-09-13T14:42:33.195Z</time>
      </trkpt>
      <trkpt lat="45.64469" lon="4.67892">
        <ele>417.46267</ele>
        <time>2025-09-13T14:42:34.860Z</time>
      </trkpt>
      <trkpt lat="45.64484" lon="4.67897">
        <ele>417.615214</ele>
        <time>2025-09-13T14:42:37.924Z</time>
      </trkpt>
      <trkpt lat="45.64528" lon="4.67898">
        <ele>418.036695</ele>
        <time>2025-09-13T14:42:46.765Z</time>
      </trkpt>
      <trkpt lat="45.64546" lon="4.67898">
        <ele>418.216342</ele>
        <time>2025-09-13T14:42:50.714Z</time>
      </trkpt>
      <trkpt lat="45.64572" lon="4.67904">
        <ele>418.466953</ele>
        <time>2025-09-13T14:42:56.450Z</time>
      </trkpt>
      <trkpt lat="45.64635" lon="4.67948">
        <ele>419.463953</ele>
        <time>2025-09-13T14:43:13.329Z</time>
      </trkpt>
      <trkpt lat="45.64689" lon="4.67954">
        <ele>420.738145</ele>
        <time>2025-09-13T14:43:26.767Z</time>
      </trkpt>
      <trkpt lat="45.64694" lon="4.67955">
        <ele>420.844102</ele>
        <time>2025-09-13T14:43:27.867Z</time>
      </trkpt>
      <trkpt lat="45.64738" lon="4.67952">
        <ele>421.877469</ele>
        <time>2025-09-13T14:43:38.543Z</time>
      </trkpt>
      <trkpt lat="45.64779" lon="4.67941">
        <ele>422.865862</ele>
        <time>2025-09-13T14:43:48.521Z</time>
      </trkpt>
      <trkpt lat="45.64794" lon="4.67941">
        <ele>423.157892</ele>
        <time>2025-09-13T14:43:52.066Z</time>
      </trkpt>
      <trkpt lat="45.64826" lon="4.67946">
        <ele>423.071202</ele>
        <time>2025-09-13T14:43:59.355Z</time>
      </trkpt>
      <trkpt lat="45.64846" lon="4.67954">
        <ele>423.016171</ele>
        <time>2025-09-13T14:44:03.681Z</time>
      </trkpt>
      <trkpt lat="45.6487" lon="4.67964">
        <ele>422.950311</ele>
        <time>2025-09-13T14:44:08.392Z</time>
      </trkpt>
      <trkpt lat="45.64879" lon="4.67965">
        <ele>422.925042</ele>
        <time>2025-09-13T14:44:10.167Z</time>
      </trkpt>
      <trkpt lat="45.64927" lon="4.6796">
        <ele>422.795436</ele>
        <time>2025-09-13T14:44:18.857Z</time>
      </trkpt>
      <trkpt lat="45.65022" lon="4.67928">
        <ele>421.546329</ele>
        <time>2025-09-13T14:44:33.977Z</time>
      </trkpt>
      <trkpt lat="45.65125" lon="4.67893">
        <ele>419.369603</ele>
        <time>2025-09-13T14:44:49.710Z</time>
      </trkpt>
      <trkpt lat="45.65229" lon="4.67832">
        <ele>419.06908</ele>
        <time>2025-09-13T14:45:08.984Z</time>
      </trkpt>
      <trkpt lat="45.65237" lon="4.6783">
        <ele>419.076991</ele>
        <time>2025-09-13T14:45:10.744Z</time>
      </trkpt>
      <trkpt lat="45.65251" lon="4.67837">
        <ele>419.091353</ele>
        <time>2025-09-13T14:45:14.037Z</time>
      </trkpt>
      <trkpt lat="45.65253" lon="4.67834">
        <ele>419.093564</ele>
        <time>2025-09-13T14:45:14.756Z</time>
      </trkpt>
      <trkpt lat="45.65283" lon="4.6783">
        <ele>419.123203</ele>
        <time>2025-09-13T14:45:24.352Z</time>
      </trkpt>
      <trkpt lat="45.65332" lon="4.67799">
        <ele>418.657729</ele>
        <time>2025-09-13T14:45:40.884Z</time>
      </trkpt>
      <trkpt lat="45.65363" lon="4.67765">
        <ele>417.854454</ele>
        <time>2025-09-13T14:45:52.554Z</time>
      </trkpt>
      <trkpt lat="45.65386" lon="4.67736">
        <ele>417.203717</ele>
        <time>2025-09-13T14:46:01.571Z</time>
      </trkpt>
      <trkpt lat="45.65403" lon="4.67724">
        <ele>416.814318</ele>
        <time>2025-09-13T14:46:06.501Z</time>
      </trkpt>
      <trkpt lat="45.65453" lon="4.67701">
        <ele>415.716292</ele>
        <time>2025-09-13T14:46:19.357Z</time>
      </trkpt>
      <trkpt lat="45.65473" lon="4.67688">
        <ele>414.947908</ele>
        <time>2025-09-13T14:46:24.654Z</time>
      </trkpt>
      <trkpt lat="45.6552" lon="4.67671">
        <ele>411.889702</ele>
        <time>2025-09-13T14:46:35.909Z</time>
      </trkpt>
      <trkpt lat="45.65575" lon="4.67659">
        <ele>408.419316</ele>
        <time>2025-09-13T14:46:48.487Z</time>
      </trkpt>
      <trkpt lat="45.65629" lon="4.67643">
        <ele>404.946135</ele>
        <time>2025-09-13T14:47:01.113Z</time>
      </trkpt>
      <trkpt lat="45.65669" lon="4.67625">
        <ele>402.715193</ele>
        <time>2025-09-13T14:47:10.860Z</time>
      </trkpt>
      <trkpt lat="45.65692" lon="4.67624">
        <ele>401.594224</ele>
        <time>2025-09-13T14:47:16.320Z</time>
      </trkpt>
      <trkpt lat="45.65708" lon="4.67626">
        <ele>400.845937</ele>
        <time>2025-09-13T14:47:20.024Z</time>
      </trkpt>
      <trkpt lat="45.6572" lon="4.67624">
        <ele>400.242458</ele>
        <time>2025-09-13T14:47:23.017Z</time>
      </trkpt>
      <trkpt lat="45.65727" lon="4.67617">
        <ele>399.853515</ele>
        <time>2025-09-13T14:47:24.953Z</time>
      </trkpt>
      <trkpt lat="45.65734" lon="4.67616">
        <ele>399.486383</ele>
        <time>2025-09-13T14:47:26.811Z</time>
      </trkpt>
      <trkpt lat="45.65751" lon="4.67612">
        <ele>398.664294</ele>
        <time>2025-09-13T14:47:30.960Z</time>
      </trkpt>
      <trkpt lat="45.65754" lon="4.67609">
        <ele>398.50163</ele>
        <time>2025-09-13T14:47:31.785Z</time>
      </trkpt>
      <trkpt lat="45.65755" lon="4.67607">
        <ele>398.423429</ele>
        <time>2025-09-13T14:47:32.181Z</time>
      </trkpt>
      <trkpt lat="45.65784" lon="4.67678">
        <ele>395.673537</ele>
        <time>2025-09-13T14:47:46.603Z</time>
      </trkpt>
      <trkpt lat="45.65794" lon="4.67698">
        <ele>395.266978</ele>
        <time>2025-09-13T14:47:51.026Z</time>
      </trkpt>
      <trkpt lat="45.6581" lon="4.67758">
        <ele>394.722843</ele>
        <time>2025-09-13T14:48:03.144Z</time>
      </trkpt>
      <trkpt lat="45.65817" lon="4.67785">
        <ele>394.477338</ele>
        <time>2025-09-13T14:48:08.687Z</time>
      </trkpt>
      <trkpt lat="45.65874" lon="4.67891">
        <ele>393.354187</ele>
        <time>2025-09-13T14:48:36.417Z</time>
      </trkpt>
      <trkpt lat="45.65947" lon="4.67967">
        <ele>395.327447</ele>
        <time>2025-09-13T14:49:04.506Z</time>
      </trkpt>
      <trkpt lat="45.66052" lon="4.68051">
        <ele>398.94673</ele>
        <time>2025-09-13T14:49:43.771Z</time>
      </trkpt>
      <trkpt lat="45.66142" lon="4.68126">
        <ele>404.156476</ele>
        <time>2025-09-13T14:50:20.733Z</time>
      </trkpt>
      <trkpt lat="45.66158" lon="4.68132">
        <ele>404.959876</ele>
        <time>2025-09-13T14:50:26.791Z</time>
      </trkpt>
      <trkpt lat="45.66194" lon="4.68127">
        <ele>406.737442</ele>
        <time>2025-09-13T14:50:40.082Z</time>
      </trkpt>
      <trkpt lat="45.66205" lon="4.68122">
        <ele>407.260428</ele>
        <time>2025-09-13T14:50:44.436Z</time>
      </trkpt>
      <trkpt lat="45.66256" lon="4.68096">
        <ele>409.554523</ele>
        <time>2025-09-13T14:51:03.832Z</time>
      </trkpt>
      <trkpt lat="45.66275" lon="4.68079">
        <ele>410.508924</ele>
        <time>2025-09-13T14:51:11.587Z</time>
      </trkpt>
      <trkpt lat="45.663" lon="4.68043">
        <ele>412.002793</ele>
        <time>2025-09-13T14:51:23.232Z</time>
      </trkpt>
      <trkpt lat="45.66307" lon="4.68037">
        <ele>412.353948</ele>
        <time>2025-09-13T14:51:25.903Z</time>
      </trkpt>
      <trkpt lat="45.6635" lon="4.68029">
        <ele>414.203804</ele>
        <time>2025-09-13T14:51:39.949Z</time>
      </trkpt>
      <trkpt lat="45.66402" lon="4.67977">
        <ele>416.012249</ele>
        <time>2025-09-13T14:52:00.030Z</time>
      </trkpt>
      <trkpt lat="45.66406" lon="4.67966">
        <ele>416.254676</ele>
        <time>2025-09-13T14:52:02.915Z</time>
      </trkpt>
      <trkpt lat="45.66415" lon="4.67922">
        <ele>417.129529</ele>
        <time>2025-09-13T14:52:13.303Z</time>
      </trkpt>
      <trkpt lat="45.66418" lon="4.67855">
        <ele>418.386394</ele>
        <time>2025-09-13T14:52:28.252Z</time>
      </trkpt>
      <trkpt lat="45.6641" lon="4.67774">
        <ele>419.298641</ele>
        <time>2025-09-13T14:52:46.358Z</time>
      </trkpt>
      <trkpt lat="45.66408" lon="4.67724">
        <ele>419.20503</ele>
        <time>2025-09-13T14:52:57.240Z</time>
      </trkpt>
      <trkpt lat="45.66411" lon="4.67678">
        <ele>419.120689</ele>
        <time>2025-09-13T14:53:06.811Z</time>
      </trkpt>
      <trkpt lat="45.66415" lon="4.67653">
        <ele>419.072402</ele>
        <time>2025-09-13T14:53:12.244Z</time>
      </trkpt>
      <trkpt lat="45.66425" lon="4.67614">
        <ele>418.994864</ele>
        <time>2025-09-13T14:53:20.739Z</time>
      </trkpt>
      <trkpt lat="45.66432" lon="4.67594">
        <ele>418.953194</ele>
        <time>2025-09-13T14:53:25.099Z</time>
      </trkpt>
      <trkpt lat="45.66478" lon="4.67481">
        <ele>417.757253</ele>
        <time>2025-09-13T14:53:48.680Z</time>
      </trkpt>
      <trkpt lat="45.66483" lon="4.67474">
        <ele>417.638183</ele>
        <time>2025-09-13T14:53:50.404Z</time>
      </trkpt>
      <trkpt lat="45.66496" lon="4.67466">
        <ele>417.370238</ele>
        <time>2025-09-13T14:53:54.297Z</time>
      </trkpt>
      <trkpt lat="45.66537" lon="4.67459">
        <ele>416.638115</ele>
        <time>2025-09-13T14:54:05.467Z</time>
      </trkpt>
      <trkpt lat="45.66549" lon="4.67452">
        <ele>416.401609</ele>
        <time>2025-09-13T14:54:09.339Z</time>
      </trkpt>
      <trkpt lat="45.66552" lon="4.67446">
        <ele>416.304346</ele>
        <time>2025-09-13T14:54:10.962Z</time>
      </trkpt>
      <trkpt lat="45.66555" lon="4.67427">
        <ele>416.069217</ele>
        <time>2025-09-13T14:54:14.891Z</time>
      </trkpt>
      <trkpt lat="45.66557" lon="4.67397">
        <ele>415.690059</ele>
        <time>2025-09-13T14:54:21.217Z</time>
      </trkpt>
      <trkpt lat="45.66553" lon="4.67346">
        <ele>416.207316</ele>
        <time>2025-09-13T14:54:32.114Z</time>
      </trkpt>
      <trkpt lat="45.66554" lon="4.67339">
        <ele>416.282926</ele>
        <time>2025-09-13T14:54:33.154Z</time>
      </trkpt>
      <trkpt lat="45.66561" lon="4.67321">
        <ele>416.505837</ele>
        <time>2025-09-13T14:54:36.316Z</time>
      </trkpt>
      <trkpt lat="45.6657" lon="4.67309">
        <ele>416.700857</ele>
        <time>2025-09-13T14:54:39.163Z</time>
      </trkpt>
      <trkpt lat="45.6659" lon="4.67293">
        <ele>417.075895</ele>
        <time>2025-09-13T14:54:44.805Z</time>
      </trkpt>
      <trkpt lat="45.66604" lon="4.67288">
        <ele>417.304875</ele>
        <time>2025-09-13T14:54:48.392Z</time>
      </trkpt>
      <trkpt lat="45.66653" lon="4.67285">
        <ele>418.077814</ele>
        <time>2025-09-13T14:55:00.428Z</time>
      </trkpt>
      <trkpt lat="45.66671" lon="4.67275">
        <ele>418.377827</ele>
        <time>2025-09-13T14:55:04.912Z</time>
      </trkpt>
      <trkpt lat="45.66694" lon="4.67252">
        <ele>418.309837</ele>
        <time>2025-09-13T14:55:11.316Z</time>
      </trkpt>
      <trkpt lat="45.66692" lon="4.67243">
        <ele>418.247655</ele>
        <time>2025-09-13T14:55:12.674Z</time>
      </trkpt>
      <trkpt lat="45.6671" lon="4.67227">
        <ele>418.035212</ele>
        <time>2025-09-13T14:55:17.263Z</time>
      </trkpt>
      <trkpt lat="45.6673" lon="4.67217">
        <ele>417.832534</ele>
        <time>2025-09-13T14:55:21.304Z</time>
      </trkpt>
      <trkpt lat="45.66788" lon="4.67197">
        <ele>417.245226</ele>
        <time>2025-09-13T14:55:32.087Z</time>
      </trkpt>
      <trkpt lat="45.6687" lon="4.67168">
        <ele>415.623227</ele>
        <time>2025-09-13T14:55:44.662Z</time>
      </trkpt>
      <trkpt lat="45.66946" lon="4.67123">
        <ele>412.841828</ele>
        <time>2025-09-13T14:55:56.592Z</time>
      </trkpt>
      <trkpt lat="45.66964" lon="4.67123">
        <ele>412.211903</ele>
        <time>2025-09-13T14:56:01.383Z</time>
      </trkpt>
      <trkpt lat="45.66994" lon="4.67226">
        <ele>410.076375</ele>
        <time>2025-09-13T14:56:22.338Z</time>
      </trkpt>
      <trkpt lat="45.67025" lon="4.67276">
        <ele>409.202941</ele>
        <time>2025-09-13T14:56:36.034Z</time>
      </trkpt>
      <trkpt lat="45.67033" lon="4.6731">
        <ele>408.752496</ele>
        <time>2025-09-13T14:56:43.087Z</time>
      </trkpt>
      <trkpt lat="45.6705" lon="4.67364">
        <ele>407.984729</ele>
        <time>2025-09-13T14:56:54.753Z</time>
      </trkpt>
      <trkpt lat="45.67083" lon="4.67426">
        <ele>406.828195</ele>
        <time>2025-09-13T14:57:09.507Z</time>
      </trkpt>
      <trkpt lat="45.67119" lon="4.67528">
        <ele>404.744859</ele>
        <time>2025-09-13T14:57:30.746Z</time>
      </trkpt>
      <trkpt lat="45.67126" lon="4.67577">
        <ele>403.821417</ele>
        <time>2025-09-13T14:57:40.151Z</time>
      </trkpt>
      <trkpt lat="45.67119" lon="4.67628">
        <ele>402.879115</ele>
        <time>2025-09-13T14:57:49.620Z</time>
      </trkpt>
      <trkpt lat="45.67121" lon="4.67645">
        <ele>402.523545</ele>
        <time>2025-09-13T14:57:52.662Z</time>
      </trkpt>
      <trkpt lat="45.67146" lon="4.67706">
        <ele>400.260881</ele>
        <time>2025-09-13T14:58:05.304Z</time>
      </trkpt>
      <trkpt lat="45.67149" lon="4.67734">
        <ele>399.386207</ele>
        <time>2025-09-13T14:58:10.060Z</time>
      </trkpt>
      <trkpt lat="45.67149" lon="4.67797">
        <ele>397.35406</ele>
        <time>2025-09-13T14:58:20.837Z</time>
      </trkpt>
      <trkpt lat="45.67161" lon="4.67881">
        <ele>394.645008</ele>
        <time>2025-09-13T14:58:34.825Z</time>
      </trkpt>
      <trkpt lat="45.67189" lon="4.67994">
        <ele>391.95402</ele>
        <time>2025-09-13T14:58:54.737Z</time>
      </trkpt>
      <trkpt lat="45.67224" lon="4.68096">
        <ele>389.483112</ele>
        <time>2025-09-13T14:59:16.266Z</time>
      </trkpt>
      <trkpt lat="45.67259" lon="4.67989">
        <ele>389.128081</ele>
        <time>2025-09-13T14:59:41.685Z</time>
      </trkpt>
      <trkpt lat="45.67276" lon="4.67992">
        <ele>389.208608</ele>
        <time>2025-09-13T14:59:47.014Z</time>
      </trkpt>
      <trkpt lat="45.67282" lon="4.6799">
        <ele>389.241041</ele>
        <time>2025-09-13T14:59:49.132Z</time>
      </trkpt>
      <trkpt lat="45.67291" lon="4.67986">
        <ele>389.283128</ele>
        <time>2025-09-13T14:59:51.957Z</time>
      </trkpt>
      <trkpt lat="45.67315" lon="4.67959">
        <ele>389.429322</ele>
        <time>2025-09-13T15:00:01.549Z</time>
      </trkpt>
      <trkpt lat="45.67356" lon="4.67871">
        <ele>389.259904</ele>
        <time>2025-09-13T15:00:23.581Z</time>
      </trkpt>
      <trkpt lat="45.67379" lon="4.6783">
        <ele>388.470019</ele>
        <time>2025-09-13T15:00:33.628Z</time>
      </trkpt>
      <trkpt lat="45.67386" lon="4.67822">
        <ele>388.265845</ele>
        <time>2025-09-13T15:00:36.144Z</time>
      </trkpt>
      <trkpt lat="45.67423" lon="4.67799">
        <ele>387.399315</ele>
        <time>2025-09-13T15:00:46.859Z</time>
      </trkpt>
      <trkpt lat="45.67428" lon="4.67801">
        <ele>387.297438</ele>
        <time>2025-09-13T15:00:48.100Z</time>
      </trkpt>
      <trkpt lat="45.67499" lon="4.67907">
        <ele>384.080269</ele>
        <time>2025-09-13T15:01:15.022Z</time>
      </trkpt>
      <trkpt lat="45.67541" lon="4.67933">
        <ele>381.67961</ele>
        <time>2025-09-13T15:01:26.427Z</time>
      </trkpt>
      <trkpt lat="45.67564" lon="4.67954">
        <ele>380.267745</ele>
        <time>2025-09-13T15:01:32.889Z</time>
      </trkpt>
      <trkpt lat="45.67576" lon="4.67956">
        <ele>379.626408</ele>
        <time>2025-09-13T15:01:34.621Z</time>
      </trkpt>
      <trkpt lat="45.67601" lon="4.67947">
        <ele>378.318885</ele>
        <time>2025-09-13T15:01:38.081Z</time>
      </trkpt>
      <trkpt lat="45.67662" lon="4.67933">
        <ele>374.248729</ele>
        <time>2025-09-13T15:01:46.398Z</time>
      </trkpt>
      <trkpt lat="45.67678" lon="4.67937">
        <ele>372.920335</ele>
        <time>2025-09-13T15:01:48.468Z</time>
      </trkpt>
      <trkpt lat="45.67687" lon="4.67939">
        <ele>372.145036</ele>
        <time>2025-09-13T15:01:49.674Z</time>
      </trkpt>
      <trkpt lat="45.67702" lon="4.67935">
        <ele>370.832231</ele>
        <time>2025-09-13T15:01:51.692Z</time>
      </trkpt>
      <trkpt lat="45.67799" lon="4.67897">
        <ele>362.420799</ele>
        <time>2025-09-13T15:02:04.664Z</time>
      </trkpt>
      <trkpt lat="45.67819" lon="4.67889">
        <ele>360.692115</ele>
        <time>2025-09-13T15:02:07.357Z</time>
      </trkpt>
      <trkpt lat="45.67823" lon="4.67883">
        <ele>360.246542</ele>
        <time>2025-09-13T15:02:08.591Z</time>
      </trkpt>
      <trkpt lat="45.6787" lon="4.67871">
        <ele>356.463845</ele>
        <time>2025-09-13T15:02:19.000Z</time>
      </trkpt>
      <trkpt lat="45.67949" lon="4.67834">
        <ele>349.861306</ele>
        <time>2025-09-13T15:02:37.527Z</time>
      </trkpt>
      <trkpt lat="45.67992" lon="4.67812">
        <ele>346.315312</ele>
        <time>2025-09-13T15:02:48.045Z</time>
      </trkpt>
      <trkpt lat="45.68" lon="4.67805">
        <ele>345.658821</ele>
        <time>2025-09-13T15:02:50.266Z</time>
      </trkpt>
      <trkpt lat="45.6801" lon="4.67801">
        <ele>344.960167</ele>
        <time>2025-09-13T15:02:52.660Z</time>
      </trkpt>
      <trkpt lat="45.68032" lon="4.67803">
        <ele>343.470358</ele>
        <time>2025-09-13T15:02:57.780Z</time>
      </trkpt>
      <trkpt lat="45.68045" lon="4.67797">
        <ele>342.554313</ele>
        <time>2025-09-13T15:03:00.951Z</time>
      </trkpt>
      <trkpt lat="45.68054" lon="4.67777">
        <ele>341.470615</ele>
        <time>2025-09-13T15:03:04.760Z</time>
      </trkpt>
      <trkpt lat="45.68066" lon="4.67707">
        <ele>338.067361</ele>
        <time>2025-09-13T15:03:16.523Z</time>
      </trkpt>
      <trkpt lat="45.68071" lon="4.67703">
        <ele>337.644019</ele>
        <time>2025-09-13T15:03:17.956Z</time>
      </trkpt>
      <trkpt lat="45.68084" lon="4.67714">
        <ele>336.657932</ele>
        <time>2025-09-13T15:03:21.250Z</time>
      </trkpt>
      <trkpt lat="45.68109" lon="4.67738">
        <ele>334.540972</ele>
        <time>2025-09-13T15:03:28.035Z</time>
      </trkpt>
      <trkpt lat="45.68119" lon="4.67743">
        <ele>333.752568</ele>
        <time>2025-09-13T15:03:30.213Z</time>
      </trkpt>
      <trkpt lat="45.68125" lon="4.67747">
        <ele>333.170195</ele>
        <time>2025-09-13T15:03:31.807Z</time>
      </trkpt>
      <trkpt lat="45.68183" lon="4.67726">
        <ele>328.456118</ele>
        <time>2025-09-13T15:03:45.040Z</time>
      </trkpt>
      <trkpt lat="45.68228" lon="4.67713">
        <ele>324.79096</ele>
        <time>2025-09-13T15:03:55.239Z</time>
      </trkpt>
      <trkpt lat="45.6823" lon="4.67777">
        <ele>321.252991</ele>
        <time>2025-09-13T15:04:01.038Z</time>
      </trkpt>
      <trkpt lat="45.68438" lon="4.67708">
        <ele>307.278501</ele>
        <time>2025-09-13T15:04:49.631Z</time>
      </trkpt>
      <trkpt lat="45.68466" lon="4.67692">
        <ele>306.279184</ele>
        <time>2025-09-13T15:04:56.917Z</time>
      </trkpt>
      <trkpt lat="45.68485" lon="4.67662">
        <ele>305.364003</ele>
        <time>2025-09-13T15:05:03.787Z</time>
      </trkpt>
      <trkpt lat="45.68489" lon="4.67644">
        <ele>304.94957</ele>
        <time>2025-09-13T15:05:06.985Z</time>
      </trkpt>
      <trkpt lat="45.68486" lon="4.67615">
        <ele>304.288237</ele>
        <time>2025-09-13T15:05:12.266Z</time>
      </trkpt>
      <trkpt lat="45.68474" lon="4.67565">
        <ele>303.100499</ele>
        <time>2025-09-13T15:05:22.649Z</time>
      </trkpt>
      <trkpt lat="45.68492" lon="4.67527">
        <ele>302.441678</ele>
        <time>2025-09-13T15:05:32.359Z</time>
      </trkpt>
      <trkpt lat="45.68479" lon="4.67497">
        <ele>303.519749</ele>
        <time>2025-09-13T15:05:37.650Z</time>
      </trkpt>
      <trkpt lat="45.68475" lon="4.67427">
        <ele>305.659755</ele>
        <time>2025-09-13T15:05:49.698Z</time>
      </trkpt>
      <trkpt lat="45.68488" lon="4.67385">
        <ele>307.049884</ele>
        <time>2025-09-13T15:05:59.175Z</time>
      </trkpt>
      <trkpt lat="45.68497" lon="4.67361">
        <ele>307.884461</ele>
        <time>2025-09-13T15:06:05.252Z</time>
      </trkpt>
      <trkpt lat="45.68511" lon="4.67336">
        <ele>308.845259</ele>
        <time>2025-09-13T15:06:12.328Z</time>
      </trkpt>
      <trkpt lat="45.68554" lon="4.67278">
        <ele>311.549833</ele>
        <time>2025-09-13T15:06:31.223Z</time>
      </trkpt>
      <trkpt lat="45.68563" lon="4.6728">
        <ele>312.018744</ele>
        <time>2025-09-13T15:06:34.257Z</time>
      </trkpt>
      <trkpt lat="45.6863" lon="4.67324">
        <ele>315.525256</ele>
        <time>2025-09-13T15:06:55.699Z</time>
      </trkpt>
      <trkpt lat="45.68689" lon="4.67357">
        <ele>318.589637</ele>
        <time>2025-09-13T15:07:11.352Z</time>
      </trkpt>
      <trkpt lat="45.68809" lon="4.67411">
        <ele>320.271452</ele>
        <time>2025-09-13T15:07:38.292Z</time>
      </trkpt>
      <trkpt lat="45.68817" lon="4.67411">
        <ele>320.369115</ele>
        <time>2025-09-13T15:07:39.857Z</time>
      </trkpt>
      <trkpt lat="45.68818" lon="4.67414">
        <ele>320.394352</ele>
        <time>2025-09-13T15:07:40.260Z</time>
      </trkpt>
      <trkpt lat="45.68821" lon="4.67418">
        <ele>320.448886</ele>
        <time>2025-09-13T15:07:41.084Z</time>
      </trkpt>
      <trkpt lat="45.68828" lon="4.6742">
        <ele>320.545099</ele>
        <time>2025-09-13T15:07:42.605Z</time>
      </trkpt>
      <trkpt lat="45.6885" lon="4.67448">
        <ele>320.92013</ele>
        <time>2025-09-13T15:07:48.373Z</time>
      </trkpt>
      <trkpt lat="45.6897" lon="4.67652">
        <ele>321.757114</ele>
        <time>2025-09-13T15:08:24.831Z</time>
      </trkpt>
      <trkpt lat="45.69029" lon="4.67751">
        <ele>320.993734</ele>
        <time>2025-09-13T15:08:41.290Z</time>
      </trkpt>
      <trkpt lat="45.69053" lon="4.67797">
        <ele>320.655597</ele>
        <time>2025-09-13T15:08:48.046Z</time>
      </trkpt>
      <trkpt lat="45.69073" lon="4.67856">
        <ele>320.269719</ele>
        <time>2025-09-13T15:08:55.222Z</time>
      </trkpt>
      <trkpt lat="45.69112" lon="4.67968">
        <ele>318.274712</ele>
        <time>2025-09-13T15:09:08.220Z</time>
      </trkpt>
      <trkpt lat="45.69135" lon="4.68011">
        <ele>317.404475</ele>
        <time>2025-09-13T15:09:13.774Z</time>
      </trkpt>
      <trkpt lat="45.69162" lon="4.68047">
        <ele>316.546019</ele>
        <time>2025-09-13T15:09:19.313Z</time>
      </trkpt>
      <trkpt lat="45.69273" lon="4.68194">
        <ele>314.62044</ele>
        <time>2025-09-13T15:09:43.417Z</time>
      </trkpt>
      <trkpt lat="45.69309" lon="4.68234">
        <ele>314.114857</ele>
        <time>2025-09-13T15:09:51.513Z</time>
      </trkpt>
      <trkpt lat="45.69408" lon="4.68303">
        <ele>315.150149</ele>
        <time>2025-09-13T15:10:14.693Z</time>
      </trkpt>
      <trkpt lat="45.69431" lon="4.68324">
        <ele>315.424753</ele>
        <time>2025-09-13T15:10:20.767Z</time>
      </trkpt>
      <trkpt lat="45.69497" lon="4.6841">
        <ele>316.187585</ele>
        <time>2025-09-13T15:10:39.701Z</time>
      </trkpt>
      <trkpt lat="45.69517" lon="4.68435">
        <ele>316.381048</ele>
        <time>2025-09-13T15:10:45.381Z</time>
      </trkpt>
      <trkpt lat="45.69531" lon="4.68448">
        <ele>316.500657</ele>
        <time>2025-09-13T15:10:48.835Z</time>
      </trkpt>
      <trkpt lat="45.69576" lon="4.68482">
        <ele>316.860106</ele>
        <time>2025-09-13T15:10:58.852Z</time>
      </trkpt>
      <trkpt lat="45.69587" lon="4.6849">
        <ele>316.948491</ele>
        <time>2025-09-13T15:11:01.235Z</time>
      </trkpt>
      <trkpt lat="45.69604" lon="4.68502">
        <ele>317.088096</ele>
        <time>2025-09-13T15:11:04.861Z</time>
      </trkpt>
      <trkpt lat="45.69688" lon="4.68566">
        <ele>316.745863</ele>
        <time>2025-09-13T15:11:21.950Z</time>
      </trkpt>
      <trkpt lat="45.69739" lon="4.68593">
        <ele>316.47748</ele>
        <time>2025-09-13T15:11:31.214Z</time>
      </trkpt>
      <trkpt lat="45.6974" lon="4.6864">
        <ele>316.312276</ele>
        <time>2025-09-13T15:11:36.774Z</time>
      </trkpt>
      <trkpt lat="45.69674" lon="4.68739">
        <ele>316.39317</ele>
        <time>2025-09-13T15:11:54.197Z</time>
      </trkpt>
      <trkpt lat="45.69671" lon="4.68744">
        <ele>316.400112</ele>
        <time>2025-09-13T15:11:55.147Z</time>
      </trkpt>
      <trkpt lat="45.6963" lon="4.68866">
        <ele>316.528833</ele>
        <time>2025-09-13T15:12:15.508Z</time>
      </trkpt>
      <trkpt lat="45.69615" lon="4.68903">
        <ele>316.550303</ele>
        <time>2025-09-13T15:12:22.608Z</time>
      </trkpt>
      <trkpt lat="45.69543" lon="4.69079">
        <ele>316.651454</ele>
        <time>2025-09-13T15:12:51.984Z</time>
      </trkpt>
      <trkpt lat="45.69525" lon="4.69139">
        <ele>313.852433</ele>
        <time>2025-09-13T15:12:58.652Z</time>
      </trkpt>
      <trkpt lat="45.69514" lon="4.69148">
        <ele>313.066737</ele>
        <time>2025-09-13T15:13:01.587Z</time>
      </trkpt>
      <trkpt lat="45.69512" lon="4.69165">
        <ele>312.261549</ele>
        <time>2025-09-13T15:13:04.539Z</time>
      </trkpt>
      <trkpt lat="45.69518" lon="4.69197">
        <ele>310.825505</ele>
        <time>2025-09-13T15:13:09.715Z</time>
      </trkpt>
      <trkpt lat="45.69526" lon="4.69273">
        <ele>307.415429</ele>
        <time>2025-09-13T15:13:21.584Z</time>
      </trkpt>
      <trkpt lat="45.69533" lon="4.69287">
        <ele>306.641026</ele>
        <time>2025-09-13T15:13:24.243Z</time>
      </trkpt>
      <trkpt lat="45.69548" lon="4.69302">
        <ele>305.481866</ele>
        <time>2025-09-13T15:13:28.219Z</time>
      </trkpt>
      <trkpt lat="45.69554" lon="4.69315">
        <ele>304.634846</ele>
        <time>2025-09-13T15:13:30.599Z</time>
      </trkpt>
      <trkpt lat="45.69553" lon="4.69337">
        <ele>303.336374</ele>
        <time>2025-09-13T15:13:33.927Z</time>
      </trkpt>
      <trkpt lat="45.69547" lon="4.69389">
        <ele>300.174753</ele>
        <time>2025-09-13T15:13:41.960Z</time>
      </trkpt>
      <trkpt lat="45.69549" lon="4.69432">
        <ele>297.582239</ele>
        <time>2025-09-13T15:13:48.544Z</time>
      </trkpt>
      <trkpt lat="45.69539" lon="4.69431">
        <ele>296.707896</ele>
        <time>2025-09-13T15:13:50.751Z</time>
      </trkpt>
      <trkpt lat="45.69519" lon="4.69446">
        <ele>294.774355</ele>
        <time>2025-09-13T15:13:55.672Z</time>
      </trkpt>
      <trkpt lat="45.69503" lon="4.69466">
        <ele>292.95569</ele>
        <time>2025-09-13T15:14:00.379Z</time>
      </trkpt>
      <trkpt lat="45.69466" lon="4.69453">
        <ele>289.844682</ele>
        <time>2025-09-13T15:14:09.155Z</time>
      </trkpt>
      <trkpt lat="45.69449" lon="4.69451">
        <ele>289.512382</ele>
        <time>2025-09-13T15:14:13.125Z</time>
      </trkpt>
      <trkpt lat="45.69433" lon="4.69454">
        <ele>289.21214</ele>
        <time>2025-09-13T15:14:16.777Z</time>
      </trkpt>
      <trkpt lat="45.69407" lon="4.6947">
        <ele>288.641662</ele>
        <time>2025-09-13T15:14:24.003Z</time>
      </trkpt>
      <trkpt lat="45.69396" lon="4.69476">
        <ele>288.4114</ele>
        <time>2025-09-13T15:14:27.105Z</time>
      </trkpt>
      <trkpt lat="45.69363" lon="4.69507">
        <ele>287.645872</ele>
        <time>2025-09-13T15:14:38.385Z</time>
      </trkpt>
      <trkpt lat="45.69325" lon="4.69563">
        <ele>286.569424</ele>
        <time>2025-09-13T15:14:55.307Z</time>
      </trkpt>
      <trkpt lat="45.69299" lon="4.69641">
        <ele>287.793223</ele>
        <time>2025-09-13T15:15:14.412Z</time>
      </trkpt>
      <trkpt lat="45.69287" lon="4.69723">
        <ele>289.417717</ele>
        <time>2025-09-13T15:15:33.200Z</time>
      </trkpt>
      <trkpt lat="45.69286" lon="4.6978">
        <ele>290.524232</ele>
        <time>2025-09-13T15:15:46.156Z</time>
      </trkpt>
      <trkpt lat="45.69292" lon="4.69835">
        <ele>291.615696</ele>
        <time>2025-09-13T15:15:58.755Z</time>
      </trkpt>
      <trkpt lat="45.69306" lon="4.69901">
        <ele>293.08005</ele>
        <time>2025-09-13T15:16:14.409Z</time>
      </trkpt>
      <trkpt lat="45.69329" lon="4.69957">
        <ele>294.448097</ele>
        <time>2025-09-13T15:16:28.909Z</time>
      </trkpt>
      <trkpt lat="45.6936" lon="4.70022">
        <ele>296.130093</ele>
        <time>2025-09-13T15:16:46.714Z</time>
      </trkpt>
      <trkpt lat="45.69379" lon="4.7007">
        <ele>297.157976</ele>
        <time>2025-09-13T15:16:56.170Z</time>
      </trkpt>
      <trkpt lat="45.69396" lon="4.70151">
        <ele>298.418139</ele>
        <time>2025-09-13T15:17:10.588Z</time>
      </trkpt>
      <trkpt lat="45.69397" lon="4.70235">
        <ele>299.660785</ele>
        <time>2025-09-13T15:17:24.453Z</time>
      </trkpt>
      <trkpt lat="45.69387" lon="4.70297">
        <ele>300.610433</ele>
        <time>2025-09-13T15:17:34.458Z</time>
      </trkpt>
      <trkpt lat="45.69375" lon="4.70341">
        <ele>300.896215</ele>
        <time>2025-09-13T15:17:41.509Z</time>
      </trkpt>
      <trkpt lat="45.6936" lon="4.70381">
        <ele>301.136447</ele>
        <time>2025-09-13T15:17:47.968Z</time>
      </trkpt>
      <trkpt lat="45.69337" lon="4.7042">
        <ele>301.403839</ele>
        <time>2025-09-13T15:17:58.600Z</time>
      </trkpt>
      <trkpt lat="45.69295" lon="4.70467">
        <ele>301.805718</ele>
        <time>2025-09-13T15:18:14.678Z</time>
      </trkpt>
      <trkpt lat="45.69255" lon="4.70495">
        <ele>302.373722</ele>
        <time>2025-09-13T15:18:28.394Z</time>
      </trkpt>
      <trkpt lat="45.69231" lon="4.70509">
        <ele>302.95963</ele>
        <time>2025-09-13T15:18:36.538Z</time>
      </trkpt>
      <trkpt lat="45.69174" lon="4.70519">
        <ele>304.244885</ele>
        <time>2025-09-13T15:18:54.633Z</time>
      </trkpt>
      <trkpt lat="45.69126" lon="4.70512">
        <ele>305.322136</ele>
        <time>2025-09-13T15:19:09.973Z</time>
      </trkpt>
      <trkpt lat="45.69059" lon="4.70496">
        <ele>306.966685</ele>
        <time>2025-09-13T15:19:31.903Z</time>
      </trkpt>
      <trkpt lat="45.69002" lon="4.70502">
        <ele>308.403304</ele>
        <time>2025-09-13T15:19:49.805Z</time>
      </trkpt>
      <trkpt lat="45.68967" lon="4.70515">
        <ele>309.33922</ele>
        <time>2025-09-13T15:20:01.393Z</time>
      </trkpt>
      <trkpt lat="45.68932" lon="4.70539">
        <ele>310.332385</ele>
        <time>2025-09-13T15:20:13.631Z</time>
      </trkpt>
      <trkpt lat="45.68899" lon="4.70571">
        <ele>311.49629</ele>
        <time>2025-09-13T15:20:26.100Z</time>
      </trkpt>
      <trkpt lat="45.68871" lon="4.70614">
        <ele>312.769367</ele>
        <time>2025-09-13T15:20:39.185Z</time>
      </trkpt>
      <trkpt lat="45.68854" lon="4.70648">
        <ele>313.68034</ele>
        <time>2025-09-13T15:20:48.703Z</time>
      </trkpt>
      <trkpt lat="45.68842" lon="4.70683">
        <ele>314.503053</ele>
        <time>2025-09-13T15:20:57.411Z</time>
      </trkpt>
      <trkpt lat="45.68819" lon="4.70749">
        <ele>316.103996</ele>
        <time>2025-09-13T15:21:14.515Z</time>
      </trkpt>
      <trkpt lat="45.6881" lon="4.70785">
        <ele>317.054024</ele>
        <time>2025-09-13T15:21:23.460Z</time>
      </trkpt>
      <trkpt lat="45.68786" lon="4.70847">
        <ele>318.817632</ele>
        <time>2025-09-13T15:21:39.838Z</time>
      </trkpt>
      <trkpt lat="45.68772" lon="4.70874">
        <ele>319.670478</ele>
        <time>2025-09-13T15:21:47.645Z</time>
      </trkpt>
      <trkpt lat="45.68722" lon="4.70947">
        <ele>322.243246</ele>
        <time>2025-09-13T15:22:10.838Z</time>
      </trkpt>
      <trkpt lat="45.68708" lon="4.7094">
        <ele>322.780826</ele>
        <time>2025-09-13T15:22:14.610Z</time>
      </trkpt>
      <trkpt lat="45.68669" lon="4.70906">
        <ele>324.455769</ele>
        <time>2025-09-13T15:22:26.218Z</time>
      </trkpt>
      <trkpt lat="45.68586" lon="4.70826">
        <ele>328.13826</ele>
        <time>2025-09-13T15:22:53.654Z</time>
      </trkpt>
      <trkpt lat="45.68487" lon="4.70696">
        <ele>328.268925</ele>
        <time>2025-09-13T15:23:26.059Z</time>
      </trkpt>
      <trkpt lat="45.68451" lon="4.70848">
        <ele>325.276295</ele>
        <time>2025-09-13T15:23:52.403Z</time>
      </trkpt>
      <trkpt lat="45.68422" lon="4.70954">
        <ele>320.182962</ele>
        <time>2025-09-13T15:24:10.389Z</time>
      </trkpt>
      <trkpt lat="45.68354" lon="4.70929">
        <ele>316.038075</ele>
        <time>2025-09-13T15:24:20.025Z</time>
      </trkpt>
      <trkpt lat="45.68346" lon="4.70928">
        <ele>316.011027</ele>
        <time>2025-09-13T15:24:21.120Z</time>
      </trkpt>
      <trkpt lat="45.68322" lon="4.70913">
        <ele>315.918528</ele>
        <time>2025-09-13T15:24:24.879Z</time>
      </trkpt>
      <trkpt lat="45.68276" lon="4.70869">
        <ele>315.725791</ele>
        <time>2025-09-13T15:24:34.537Z</time>
      </trkpt>
      <trkpt lat="45.68262" lon="4.70861">
        <ele>315.672115</ele>
        <time>2025-09-13T15:24:37.786Z</time>
      </trkpt>
      <trkpt lat="45.68272" lon="4.70844">
        <ele>315.616416</ele>
        <time>2025-09-13T15:24:48.799Z</time>
      </trkpt>
      <trkpt lat="45.68277" lon="4.70829">
        <ele>315.575602</ele>
        <time>2025-09-13T15:24:56.875Z</time>
      </trkpt>
      <trkpt lat="45.68278" lon="4.7079">
        <ele>315.481011</ele>
        <time>2025-09-13T15:25:15.609Z</time>
      </trkpt>
      <trkpt lat="45.68269" lon="4.70741">
        <ele>315.375363</ele>
        <time>2025-09-13T15:25:40.251Z</time>
      </trkpt>
      <trkpt lat="45.68264" lon="4.70728">
        <ele>315.348282</ele>
        <time>2025-09-13T15:25:47.563Z</time>
      </trkpt>
      <trkpt lat="45.68263" lon="4.7072">
        <ele>315.334225</ele>
        <time>2025-09-13T15:25:51.381Z</time>
      </trkpt>
      <trkpt lat="45.68275" lon="4.70697">
        <ele>315.281189</ele>
        <time>2025-09-13T15:26:05.613Z</time>
      </trkpt>
      <trkpt lat="45.68275" lon="4.70687">
        <ele>315.26373</ele>
        <time>2025-09-13T15:26:10.279Z</time>
      </trkpt>
      <trkpt lat="45.68263" lon="4.70673">
        <ele>315.222983</ele>
        <time>2025-09-13T15:26:21.269Z</time>
      </trkpt>
      <trkpt lat="45.68275" lon="4.70687">
        <ele>315.182235</ele>
        <time>2025-09-13T15:26:32.259Z</time>
      </trkpt>
      <trkpt lat="45.68275" lon="4.70697">
        <ele>315.164777</ele>
        <time>2025-09-13T15:26:36.925Z</time>
      </trkpt>
      <trkpt lat="45.68263" lon="4.7072">
        <ele>315.111741</ele>
        <time>2025-09-13T15:26:51.157Z</time>
      </trkpt>
      <trkpt lat="45.68264" lon="4.70728">
        <ele>315.097683</ele>
        <time>2025-09-13T15:26:54.975Z</time>
      </trkpt>
      <trkpt lat="45.68269" lon="4.70741">
        <ele>315.070602</ele>
        <time>2025-09-13T15:27:02.286Z</time>
      </trkpt>
      <trkpt lat="45.68278" lon="4.7079">
        <ele>314.978956</ele>
        <time>2025-09-13T15:27:26.929Z</time>
      </trkpt>
      <trkpt lat="45.68277" lon="4.70829">
        <ele>315.210031</ele>
        <time>2025-09-13T15:27:45.663Z</time>
      </trkpt>
      <trkpt lat="45.68272" lon="4.70844">
        <ele>315.348626</ele>
        <time>2025-09-13T15:27:53.739Z</time>
      </trkpt>
      <trkpt lat="45.68262" lon="4.70861">
        <ele>315.537766</ele>
        <time>2025-09-13T15:28:04.751Z</time>
      </trkpt>
      <trkpt lat="45.68276" lon="4.70869">
        <ele>315.720038</ele>
        <time>2025-09-13T15:28:07.308Z</time>
      </trkpt>
      <trkpt lat="45.68322" lon="4.70913">
        <ele>316.374529</ele>
        <time>2025-09-13T15:28:18.120Z</time>
      </trkpt>
      <trkpt lat="45.68346" lon="4.70928">
        <ele>316.688633</ele>
        <time>2025-09-13T15:28:24.661Z</time>
      </trkpt>
      <trkpt lat="45.68354" lon="4.70929">
        <ele>316.780481</ele>
        <time>2025-09-13T15:28:26.833Z</time>
      </trkpt>
      <trkpt lat="45.68422" lon="4.70954">
        <ele>319.884345</ele>
        <time>2025-09-13T15:28:49.247Z</time>
      </trkpt>
      <trkpt lat="45.68451" lon="4.70848">
        <ele>325.001572</ele>
        <time>2025-09-13T15:29:22.271Z</time>
      </trkpt>
      <trkpt lat="45.68487" lon="4.70696">
        <ele>328.59162</ele>
        <time>2025-09-13T15:30:03.062Z</time>
      </trkpt>
      <trkpt lat="45.68586" lon="4.70826">
        <ele>328.150431</ele>
        <time>2025-09-13T15:30:24.580Z</time>
      </trkpt>
      <trkpt lat="45.68669" lon="4.70906">
        <ele>323.756593</ele>
        <time>2025-09-13T15:30:38.928Z</time>
      </trkpt>
      <trkpt lat="45.68708" lon="4.7094">
        <ele>321.758101</ele>
        <time>2025-09-13T15:30:45.472Z</time>
      </trkpt>
      <trkpt lat="45.68722" lon="4.70947">
        <ele>321.102387</ele>
        <time>2025-09-13T15:30:47.595Z</time>
      </trkpt>
      <trkpt lat="45.68715" lon="4.70964">
        <ele>320.393549</ele>
        <time>2025-09-13T15:30:49.487Z</time>
      </trkpt>
      <trkpt lat="45.68711" lon="4.70981">
        <ele>319.657425</ele>
        <time>2025-09-13T15:30:51.085Z</time>
      </trkpt>
      <trkpt lat="45.6871" lon="4.71008">
        <ele>318.517642</ele>
        <time>2025-09-13T15:30:53.549Z</time>
      </trkpt>
      <trkpt lat="45.68754" lon="4.7117">
        <ele>311.100972</ele>
        <time>2025-09-13T15:31:09.132Z</time>
      </trkpt>
      <trkpt lat="45.6878" lon="4.71267">
        <ele>306.762133</ele>
        <time>2025-09-13T15:31:18.400Z</time>
      </trkpt>
      <trkpt lat="45.68798" lon="4.71305">
        <ele>304.841452</ele>
        <time>2025-09-13T15:31:22.652Z</time>
      </trkpt>
      <trkpt lat="45.68833" lon="4.7134">
        <ele>302.269598</ele>
        <time>2025-09-13T15:31:28.475Z</time>
      </trkpt>
      <trkpt lat="45.68947" lon="4.71427">
        <ele>291.083573</ele>
        <time>2025-09-13T15:31:44.883Z</time>
      </trkpt>
      <trkpt lat="45.68939" lon="4.71572">
        <ele>280.294297</ele>
        <time>2025-09-13T15:32:05.797Z</time>
      </trkpt>
      <trkpt lat="45.68942" lon="4.71621">
        <ele>277.468225</ele>
        <time>2025-09-13T15:32:12.634Z</time>
      </trkpt>
      <trkpt lat="45.68931" lon="4.71639">
        <ele>276.103058</ele>
        <time>2025-09-13T15:32:16.083Z</time>
      </trkpt>
      <trkpt lat="45.68874" lon="4.71664">
        <ele>271.238266</ele>
        <time>2025-09-13T15:32:28.887Z</time>
      </trkpt>
      <trkpt lat="45.6887" lon="4.7166">
        <ele>270.849047</ele>
        <time>2025-09-13T15:32:29.956Z</time>
      </trkpt>
      <trkpt lat="45.68868" lon="4.71632">
        <ele>269.254177</ele>
        <time>2025-09-13T15:32:34.429Z</time>
      </trkpt>
      <trkpt lat="45.6886" lon="4.71613">
        <ele>268.026188</ele>
        <time>2025-09-13T15:32:38.077Z</time>
      </trkpt>
      <trkpt lat="45.68825" lon="4.7159">
        <ele>265.772983</ele>
        <time>2025-09-13T15:32:49.325Z</time>
      </trkpt>
      <trkpt lat="45.68806" lon="4.71589">
        <ele>267.06496</ele>
        <time>2025-09-13T15:32:55.188Z</time>
      </trkpt>
      <trkpt lat="45.68798" lon="4.71596">
        <ele>267.735952</ele>
        <time>2025-09-13T15:32:58.365Z</time>
      </trkpt>
      <trkpt lat="45.68795" lon="4.71611">
        <ele>268.453771</ele>
        <time>2025-09-13T15:33:01.974Z</time>
      </trkpt>
      <trkpt lat="45.68794" lon="4.71612">
        <ele>268.52957</ele>
        <time>2025-09-13T15:33:02.376Z</time>
      </trkpt>
      <trkpt lat="45.68794" lon="4.71614">
        <ele>268.605368</ele>
        <time>2025-09-13T15:33:02.755Z</time>
      </trkpt>
      <trkpt lat="45.68786" lon="4.71634">
        <ele>269.753349</ele>
        <time>2025-09-13T15:33:08.946Z</time>
      </trkpt>
      <trkpt lat="45.68783" lon="4.71656">
        <ele>270.800821</ele>
        <time>2025-09-13T15:33:14.998Z</time>
      </trkpt>
      <trkpt lat="45.68768" lon="4.71699">
        <ele>273.115629</ele>
        <time>2025-09-13T15:33:29.428Z</time>
      </trkpt>
      <trkpt lat="45.68765" lon="4.71703">
        <ele>273.4203</ele>
        <time>2025-09-13T15:33:31.448Z</time>
      </trkpt>
      <trkpt lat="45.68758" lon="4.71713">
        <ele>274.094462</ele>
        <time>2025-09-13T15:33:35.932Z</time>
      </trkpt>
      <trkpt lat="45.68744" lon="4.71716">
        <ele>275.07889</ele>
        <time>2025-09-13T15:33:42.826Z</time>
      </trkpt>
      <trkpt lat="45.68735" lon="4.71703">
        <ele>275.977775</ele>
        <time>2025-09-13T15:33:49.453Z</time>
      </trkpt>
      <trkpt lat="45.68727" lon="4.71698">
        <ele>276.599196</ele>
        <time>2025-09-13T15:33:54.176Z</time>
      </trkpt>
      <trkpt lat="45.68706" lon="4.71706">
        <ele>278.234852</ele>
        <time>2025-09-13T15:34:05.769Z</time>
      </trkpt>
      <trkpt lat="45.68688" lon="4.71725">
        <ele>280.612374</ele>
        <time>2025-09-13T15:34:17.801Z</time>
      </trkpt>
      <trkpt lat="45.68652" lon="4.71819">
        <ele>288.377662</ele>
        <time>2025-09-13T15:34:55.859Z</time>
      </trkpt>
      <trkpt lat="45.68651" lon="4.71834">
        <ele>289.450132</ele>
        <time>2025-09-13T15:35:00.915Z</time>
      </trkpt>
      <trkpt lat="45.68656" lon="4.71847">
        <ele>290.537689</ele>
        <time>2025-09-13T15:35:05.921Z</time>
      </trkpt>
      <trkpt lat="45.68628" lon="4.71935">
        <ele>297.051624</ele>
        <time>2025-09-13T15:35:31.786Z</time>
      </trkpt>
      <trkpt lat="45.68608" lon="4.71992">
        <ele>299.243005</ele>
        <time>2025-09-13T15:35:46.024Z</time>
      </trkpt>
      <trkpt lat="45.686" lon="4.71997">
        <ele>299.674946</ele>
        <time>2025-09-13T15:35:48.709Z</time>
      </trkpt>
      <trkpt lat="45.68565" lon="4.71977">
        <ele>301.541481</ele>
        <time>2025-09-13T15:35:59.533Z</time>
      </trkpt>
      <trkpt lat="45.68568" lon="4.71993">
        <ele>302.127088</ele>
        <time>2025-09-13T15:36:02.647Z</time>
      </trkpt>
      <trkpt lat="45.68569" lon="4.72043">
        <ele>303.837737</ele>
        <time>2025-09-13T15:36:11.305Z</time>
      </trkpt>
      <trkpt lat="45.68597" lon="4.72094">
        <ele>305.679459</ele>
        <time>2025-09-13T15:36:22.042Z</time>
      </trkpt>
      <trkpt lat="45.68623" lon="4.72193">
        <ele>307.03631</ele>
        <time>2025-09-13T15:36:38.799Z</time>
      </trkpt>
      <trkpt lat="45.68661" lon="4.72335">
        <ele>308.997343</ele>
        <time>2025-09-13T15:37:03.246Z</time>
      </trkpt>
      <trkpt lat="45.68651" lon="4.72382">
        <ele>309.616588</ele>
        <time>2025-09-13T15:37:13.931Z</time>
      </trkpt>
      <trkpt lat="45.68655" lon="4.72431">
        <ele>310.237433</ele>
        <time>2025-09-13T15:37:24.629Z</time>
      </trkpt>
      <trkpt lat="45.68667" lon="4.72462">
        <ele>310.686251</ele>
        <time>2025-09-13T15:37:32.351Z</time>
      </trkpt>
      <trkpt lat="45.68634" lon="4.7258">
        <ele>312.49191</ele>
        <time>2025-09-13T15:37:59.978Z</time>
      </trkpt>
      <trkpt lat="45.68625" lon="4.72605">
        <ele>313.088539</ele>
        <time>2025-09-13T15:38:06.001Z</time>
      </trkpt>
      <trkpt lat="45.68579" lon="4.72496">
        <ele>315.830824</ele>
        <time>2025-09-13T15:38:34.273Z</time>
      </trkpt>
      <trkpt lat="45.6856" lon="4.72469">
        <ele>316.656491</ele>
        <time>2025-09-13T15:38:43.196Z</time>
      </trkpt>
      <trkpt lat="45.68465" lon="4.72359">
        <ele>320.865989</ele>
        <time>2025-09-13T15:39:26.017Z</time>
      </trkpt>
      <trkpt lat="45.68412" lon="4.72299">
        <ele>323.252611</ele>
        <time>2025-09-13T15:39:47.339Z</time>
      </trkpt>
      <trkpt lat="45.68404" lon="4.72292">
        <ele>323.578401</ele>
        <time>2025-09-13T15:39:50.209Z</time>
      </trkpt>
      <trkpt lat="45.68412" lon="4.72299">
        <ele>323.904191</ele>
        <time>2025-09-13T15:39:53.099Z</time>
      </trkpt>
      <trkpt lat="45.68465" lon="4.72359">
        <ele>325.089598</ele>
        <time>2025-09-13T15:40:14.018Z</time>
      </trkpt>
      <trkpt lat="45.68412" lon="4.72299">
        <ele>326.255254</ele>
        <time>2025-09-13T15:40:34.722Z</time>
      </trkpt>
      <trkpt lat="45.68404" lon="4.72292">
        <ele>326.414374</ele>
        <time>2025-09-13T15:40:37.581Z</time>
      </trkpt>
      <trkpt lat="45.68326" lon="4.72227">
        <ele>327.635623</ele>
        <time>2025-09-13T15:41:06.099Z</time>
      </trkpt>
      <trkpt lat="45.6829" lon="4.722">
        <ele>328.079507</ele>
        <time>2025-09-13T15:41:18.757Z</time>
      </trkpt>
      <trkpt lat="45.68125" lon="4.72028">
        <ele>329.091356</ele>
        <time>2025-09-13T15:42:20.168Z</time>
      </trkpt>
      <trkpt lat="45.68059" lon="4.71952">
        <ele>328.971687</ele>
        <time>2025-09-13T15:42:45.563Z</time>
      </trkpt>
      <trkpt lat="45.68013" lon="4.71888">
        <ele>328.514013</ele>
        <time>2025-09-13T15:43:04.836Z</time>
      </trkpt>
      <trkpt lat="45.67978" lon="4.7208">
        <ele>326.706099</ele>
        <time>2025-09-13T15:43:29.787Z</time>
      </trkpt>
      <trkpt lat="45.67824" lon="4.71955">
        <ele>322.661849</ele>
        <time>2025-09-13T15:44:15.483Z</time>
      </trkpt>
      <trkpt lat="45.67792" lon="4.71933">
        <ele>322.049656</ele>
        <time>2025-09-13T15:44:25.207Z</time>
      </trkpt>
      <trkpt lat="45.67766" lon="4.71922">
        <ele>321.579952</ele>
        <time>2025-09-13T15:44:29.958Z</time>
      </trkpt>
      <trkpt lat="45.67737" lon="4.71916">
        <ele>321.083905</ele>
        <time>2025-09-13T15:44:35.128Z</time>
      </trkpt>
      <trkpt lat="45.6772" lon="4.71907">
        <ele>320.78247</ele>
        <time>2025-09-13T15:44:38.345Z</time>
      </trkpt>
      <trkpt lat="45.67673" lon="4.71865">
        <ele>320.092231</ele>
        <time>2025-09-13T15:44:48.814Z</time>
      </trkpt>
      <trkpt lat="45.67587" lon="4.7179">
        <ele>319.292362</ele>
        <time>2025-09-13T15:45:07.325Z</time>
      </trkpt>
      <trkpt lat="45.67554" lon="4.71746">
        <ele>318.933544</ele>
        <time>2025-09-13T15:45:15.287Z</time>
      </trkpt>
      <trkpt lat="45.67539" lon="4.71737">
        <ele>318.77966</ele>
        <time>2025-09-13T15:45:18.117Z</time>
      </trkpt>
      <trkpt lat="45.67524" lon="4.71739">
        <ele>318.614199</ele>
        <time>2025-09-13T15:45:20.903Z</time>
      </trkpt>
      <trkpt lat="45.6746" lon="4.71765">
        <ele>317.924986</ele>
        <time>2025-09-13T15:45:32.572Z</time>
      </trkpt>
      <trkpt lat="45.67344" lon="4.71762">
        <ele>316.817744</ele>
        <time>2025-09-13T15:45:53.508Z</time>
      </trkpt>
      <trkpt lat="45.67271" lon="4.71765">
        <ele>316.319602</ele>
        <time>2025-09-13T15:46:07.084Z</time>
      </trkpt>
      <trkpt lat="45.67088" lon="4.71757">
        <ele>314.341638</ele>
        <time>2025-09-13T15:46:40.621Z</time>
      </trkpt>
      <trkpt lat="45.67036" lon="4.71743">
        <ele>313.60917</ele>
        <time>2025-09-13T15:46:55.034Z</time>
      </trkpt>
      <trkpt lat="45.67009" lon="4.71728">
        <ele>313.206188</ele>
        <time>2025-09-13T15:47:02.829Z</time>
      </trkpt>
      <trkpt lat="45.66975" lon="4.71714">
        <ele>312.72813</ele>
        <time>2025-09-13T15:47:12.275Z</time>
      </trkpt>
      <trkpt lat="45.66925" lon="4.71707">
        <ele>312.063767</ele>
        <time>2025-09-13T15:47:25.747Z</time>
      </trkpt>
      <trkpt lat="45.66896" lon="4.71741">
        <ele>311.565137</ele>
        <time>2025-09-13T15:47:36.392Z</time>
      </trkpt>
      <trkpt lat="45.66883" lon="4.71749">
        <ele>311.37688</ele>
        <time>2025-09-13T15:47:40.572Z</time>
      </trkpt>
      <trkpt lat="45.66728" lon="4.71766">
        <ele>312.077849</ele>
        <time>2025-09-13T15:48:28.188Z</time>
      </trkpt>
      <trkpt lat="45.66713" lon="4.71765">
        <ele>312.22559</ele>
        <time>2025-09-13T15:48:32.870Z</time>
      </trkpt>
      <trkpt lat="45.66681" lon="4.71795">
        <ele>312.602315</ele>
        <time>2025-09-13T15:48:41.751Z</time>
      </trkpt>
      <trkpt lat="45.66667" lon="4.71801">
        <ele>312.725781</ele>
        <time>2025-09-13T15:48:45.063Z</time>
      </trkpt>
      <trkpt lat="45.66646" lon="4.71806">
        <ele>312.888455</ele>
        <time>2025-09-13T15:48:50.060Z</time>
      </trkpt>
      <trkpt lat="45.66491" lon="4.71767">
        <ele>313.69478</ele>
        <time>2025-09-13T15:49:24.460Z</time>
      </trkpt>
      <trkpt lat="45.66452" lon="4.71759">
        <ele>311.28565</ele>
        <time>2025-09-13T15:49:32.509Z</time>
      </trkpt>
      <trkpt lat="45.66452" lon="4.71759">
        <ele>311.28565</ele>
        <time>2025-09-13T15:49:32.569Z</time>
      </trkpt>
      <trkpt lat="45.66458" lon="4.71763">
        <ele>310.900985</ele>
        <time>2025-09-13T15:49:35.272Z</time>
      </trkpt>
      <trkpt lat="45.66449" lon="4.71757">
        <ele>310.325298</ele>
        <time>2025-09-13T15:49:39.321Z</time>
      </trkpt>
      <trkpt lat="45.66439" lon="4.71752">
        <ele>309.650254</ele>
        <time>2025-09-13T15:49:44.066Z</time>
      </trkpt>
      <trkpt lat="45.66417" lon="4.71742">
        <ele>308.236076</ele>
        <time>2025-09-13T15:49:54.019Z</time>
      </trkpt>
      <trkpt lat="45.66406" lon="4.7174">
        <ele>307.589989</ele>
        <time>2025-09-13T15:49:58.563Z</time>
      </trkpt>
      <trkpt lat="45.66397" lon="4.71735">
        <ele>306.976601</ele>
        <time>2025-09-13T15:50:02.883Z</time>
      </trkpt>
      <trkpt lat="45.66386" lon="4.71729">
        <ele>306.285978</ele>
        <time>2025-09-13T15:50:07.751Z</time>
      </trkpt>
      <trkpt lat="45.66377" lon="4.71722">
        <ele>305.675042</ele>
        <time>2025-09-13T15:50:12.057Z</time>
      </trkpt>
      <trkpt lat="45.66368" lon="4.71716">
        <ele>305.059483</ele>
        <time>2025-09-13T15:50:16.393Z</time>
      </trkpt>
      <trkpt lat="45.66359" lon="4.71708">
        <ele>304.427515</ele>
        <time>2025-09-13T15:50:20.855Z</time>
      </trkpt>
      <trkpt lat="45.6635" lon="4.71701">
        <ele>303.771001</ele>
        <time>2025-09-13T15:50:25.484Z</time>
      </trkpt>
      <trkpt lat="45.66342" lon="4.71695">
        <ele>303.217814</ele>
        <time>2025-09-13T15:50:29.385Z</time>
      </trkpt>
      <trkpt lat="45.6633" lon="4.7169">
        <ele>302.171543</ele>
        <time>2025-09-13T15:50:34.505Z</time>
      </trkpt>
      <trkpt lat="45.66321" lon="4.71682">
        <ele>301.179334</ele>
        <time>2025-09-13T15:50:39.111Z</time>
      </trkpt>
      <trkpt lat="45.66326" lon="4.71689">
        <ele>300.502255</ele>
        <time>2025-09-13T15:50:42.257Z</time>
      </trkpt>
      <trkpt lat="45.66326" lon="4.71689">
        <ele>300.502255</ele>
        <time>2025-09-13T15:50:42.286Z</time>
      </trkpt>
      <trkpt lat="45.6632" lon="4.71682">
        <ele>299.762988</ele>
        <time>2025-09-13T15:50:43.214Z</time>
      </trkpt>
      <trkpt lat="45.66306" lon="4.71674">
        <ele>298.381228</ele>
        <time>2025-09-13T15:50:44.958Z</time>
      </trkpt>
      <trkpt lat="45.66287" lon="4.71678">
        <ele>296.549156</ele>
        <time>2025-09-13T15:50:49.111Z</time>
      </trkpt>
      <trkpt lat="45.6622" lon="4.71675">
        <ele>290.398215</ele>
        <time>2025-09-13T15:51:03.470Z</time>
      </trkpt>
      <trkpt lat="45.66215" lon="4.71686">
        <ele>289.560249</ele>
        <time>2025-09-13T15:51:05.463Z</time>
      </trkpt>
      <trkpt lat="45.66209" lon="4.71698">
        <ele>288.631718</ele>
        <time>2025-09-13T15:51:07.695Z</time>
      </trkpt>
      <trkpt lat="45.66163" lon="4.71741">
        <ele>285.437665</ele>
        <time>2025-09-13T15:51:20.406Z</time>
      </trkpt>
      <trkpt lat="45.66145" lon="4.71765">
        <ele>284.627165</ele>
        <time>2025-09-13T15:51:26.655Z</time>
      </trkpt>
      <trkpt lat="45.66135" lon="4.71778">
        <ele>284.193495</ele>
        <time>2025-09-13T15:51:30.174Z</time>
      </trkpt>
      <trkpt lat="45.66118" lon="4.71856">
        <ele>282.336898</ele>
        <time>2025-09-13T15:51:46.526Z</time>
      </trkpt>
      <trkpt lat="45.66111" lon="4.71955">
        <ele>280.467929</ele>
        <time>2025-09-13T15:52:06.176Z</time>
      </trkpt>
      <trkpt lat="45.66119" lon="4.72028">
        <ele>279.922632</ele>
        <time>2025-09-13T15:52:19.940Z</time>
      </trkpt>
      <trkpt lat="45.66133" lon="4.72075">
        <ele>279.541201</ele>
        <time>2025-09-13T15:52:29.437Z</time>
      </trkpt>
      <trkpt lat="45.66137" lon="4.7217">
        <ele>278.830518</ele>
        <time>2025-09-13T15:52:49.343Z</time>
      </trkpt>
      <trkpt lat="45.66128" lon="4.72188">
        <ele>278.976578</ele>
        <time>2025-09-13T15:52:53.868Z</time>
      </trkpt>
      <trkpt lat="45.66106" lon="4.72148">
        <ele>280.451315</ele>
        <time>2025-09-13T15:53:05.029Z</time>
      </trkpt>
      <trkpt lat="45.66105" lon="4.72146">
        <ele>280.517717</ele>
        <time>2025-09-13T15:53:05.546Z</time>
      </trkpt>
      <trkpt lat="45.66106" lon="4.72143">
        <ele>280.618984</ele>
        <time>2025-09-13T15:53:06.337Z</time>
      </trkpt>
      <trkpt lat="45.66067" lon="4.72134">
        <ele>282.267131</ele>
        <time>2025-09-13T15:53:19.441Z</time>
      </trkpt>
      <trkpt lat="45.66007" lon="4.72135">
        <ele>284.738233</ele>
        <time>2025-09-13T15:53:41.252Z</time>
      </trkpt>
      <trkpt lat="45.65944" lon="4.72121">
        <ele>288.003376</ele>
        <time>2025-09-13T15:54:05.473Z</time>
      </trkpt>
      <trkpt lat="45.65937" lon="4.7212">
        <ele>288.467011</ele>
        <time>2025-09-13T15:54:08.185Z</time>
      </trkpt>
      <trkpt lat="45.65907" lon="4.72101">
        <ele>290.630199</ele>
        <time>2025-09-13T15:54:20.933Z</time>
      </trkpt>
      <trkpt lat="45.65878" lon="4.72082">
        <ele>292.669124</ele>
        <time>2025-09-13T15:54:32.858Z</time>
      </trkpt>
      <trkpt lat="45.6587" lon="4.72079">
        <ele>293.18236</ele>
        <time>2025-09-13T15:54:35.873Z</time>
      </trkpt>
      <trkpt lat="45.65841" lon="4.72069">
        <ele>295.121088</ele>
        <time>2025-09-13T15:54:47.336Z</time>
      </trkpt>
      <trkpt lat="45.65849" lon="4.72043">
        <ele>296.356163</ele>
        <time>2025-09-13T15:54:53.619Z</time>
      </trkpt>
      <trkpt lat="45.65858" lon="4.72011">
        <ele>297.909584</ele>
        <time>2025-09-13T15:55:01.755Z</time>
      </trkpt>
      <trkpt lat="45.65861" lon="4.71985">
        <ele>298.835331</ele>
        <time>2025-09-13T15:55:07.498Z</time>
      </trkpt>
      <trkpt lat="45.65862" lon="4.71976">
        <ele>299.166687</ele>
        <time>2025-09-13T15:55:09.478Z</time>
      </trkpt>
      <trkpt lat="45.6586" lon="4.71968">
        <ele>299.453864</ele>
        <time>2025-09-13T15:55:11.149Z</time>
      </trkpt>
      <trkpt lat="45.6586" lon="4.71962">
        <ele>299.687752</ele>
        <time>2025-09-13T15:55:12.500Z</time>
      </trkpt>
      <trkpt lat="45.6586" lon="4.71939">
        <ele>300.495311</ele>
        <time>2025-09-13T15:55:17.055Z</time>
      </trkpt>
      <trkpt lat="45.65861" lon="4.71931">
        <ele>300.77541</ele>
        <time>2025-09-13T15:55:18.608Z</time>
      </trkpt>
      <trkpt lat="45.65861" lon="4.71927">
        <ele>300.92402</ele>
        <time>2025-09-13T15:55:19.426Z</time>
      </trkpt>
      <trkpt lat="45.65862" lon="4.71896">
        <ele>302.02497</ele>
        <time>2025-09-13T15:55:25.396Z</time>
      </trkpt>
      <trkpt lat="45.65863" lon="4.71876">
        <ele>302.711681</ele>
        <time>2025-09-13T15:55:29.042Z</time>
      </trkpt>
      <trkpt lat="45.65815" lon="4.71872">
        <ele>305.120235</ele>
        <time>2025-09-13T15:55:42.150Z</time>
      </trkpt>
      <trkpt lat="45.65751" lon="4.7185">
        <ele>307.442739</ele>
        <time>2025-09-13T15:55:59.876Z</time>
      </trkpt>
      <trkpt lat="45.65725" lon="4.71835">
        <ele>307.957788</ele>
        <time>2025-09-13T15:56:07.107Z</time>
      </trkpt>
      <trkpt lat="45.65669" lon="4.71818">
        <ele>308.984422</ele>
        <time>2025-09-13T15:56:21.019Z</time>
      </trkpt>
      <trkpt lat="45.65638" lon="4.71815">
        <ele>309.557048</ele>
        <time>2025-09-13T15:56:27.959Z</time>
      </trkpt>
      <trkpt lat="45.65617" lon="4.71807">
        <ele>309.956116</ele>
        <time>2025-09-13T15:56:32.104Z</time>
      </trkpt>
      <trkpt lat="45.6562" lon="4.71797">
        <ele>310.09327</ele>
        <time>2025-09-13T15:56:33.501Z</time>
      </trkpt>
      <trkpt lat="45.65537" lon="4.71728">
        <ele>307.1726</ele>
        <time>2025-09-13T15:56:47.939Z</time>
      </trkpt>
      <trkpt lat="45.65497" lon="4.71721">
        <ele>305.886226</ele>
        <time>2025-09-13T15:56:53.663Z</time>
      </trkpt>
      <trkpt lat="45.65454" lon="4.71693">
        <ele>304.396637</ele>
        <time>2025-09-13T15:57:00.559Z</time>
      </trkpt>
      <trkpt lat="45.65329" lon="4.7176">
        <ele>303.03344</ele>
        <time>2025-09-13T15:57:24.199Z</time>
      </trkpt>
      <trkpt lat="45.65228" lon="4.7182">
        <ele>301.448653</ele>
        <time>2025-09-13T15:57:47.461Z</time>
      </trkpt>
      <trkpt lat="45.65198" lon="4.71842">
        <ele>300.854056</ele>
        <time>2025-09-13T15:57:53.872Z</time>
      </trkpt>
      <trkpt lat="45.65124" lon="4.71882">
        <ele>299.453624</ele>
        <time>2025-09-13T15:58:06.358Z</time>
      </trkpt>
      <trkpt lat="45.65098" lon="4.7189">
        <ele>297.843031</ele>
        <time>2025-09-13T15:58:09.996Z</time>
      </trkpt>
      <trkpt lat="45.65037" lon="4.7189">
        <ele>293.817836</ele>
        <time>2025-09-13T15:58:17.788Z</time>
      </trkpt>
      <trkpt lat="45.65021" lon="4.71895">
        <ele>292.752009</ele>
        <time>2025-09-13T15:58:21.299Z</time>
      </trkpt>
      <trkpt lat="45.65015" lon="4.71894">
        <ele>292.321896</ele>
        <time>2025-09-13T15:58:22.707Z</time>
      </trkpt>
      <trkpt lat="45.64978" lon="4.71899">
        <ele>289.865345</ele>
        <time>2025-09-13T15:58:30.992Z</time>
      </trkpt>
      <trkpt lat="45.64972" lon="4.71897">
        <ele>289.446075</ele>
        <time>2025-09-13T15:58:32.466Z</time>
      </trkpt>
      <trkpt lat="45.64965" lon="4.71887">
        <ele>288.813634</ele>
        <time>2025-09-13T15:58:34.702Z</time>
      </trkpt>
      <trkpt lat="45.6495" lon="4.71858">
        <ele>287.568459</ele>
        <time>2025-09-13T15:58:40.858Z</time>
      </trkpt>
      <trkpt lat="45.6494" lon="4.7183">
        <ele>287.938531</ele>
        <time>2025-09-13T15:58:46.673Z</time>
      </trkpt>
      <trkpt lat="45.64937" lon="4.71812">
        <ele>288.150766</ele>
        <time>2025-09-13T15:58:50.296Z</time>
      </trkpt>
      <trkpt lat="45.64937" lon="4.71798">
        <ele>288.31866</ele>
        <time>2025-09-13T15:58:53.324Z</time>
      </trkpt>
      <trkpt lat="45.64979" lon="4.71751">
        <ele>289.198984</ele>
        <time>2025-09-13T15:59:10.394Z</time>
      </trkpt>
      <trkpt lat="45.64999" lon="4.71725">
        <ele>289.652119</ele>
        <time>2025-09-13T15:59:20.034Z</time>
      </trkpt>
      <trkpt lat="45.65032" lon="4.717">
        <ele>290.276026</ele>
        <time>2025-09-13T15:59:33.481Z</time>
      </trkpt>
      <trkpt lat="45.65048" lon="4.71676">
        <ele>290.52938</ele>
        <time>2025-09-13T15:59:41.367Z</time>
      </trkpt>
      <trkpt lat="45.65081" lon="4.71658">
        <ele>290.697941</ele>
        <time>2025-09-13T15:59:52.772Z</time>
      </trkpt>
      <trkpt lat="45.65092" lon="4.71643">
        <ele>290.769691</ele>
        <time>2025-09-13T15:59:57.452Z</time>
      </trkpt>
      <trkpt lat="45.65091" lon="4.71634">
        <ele>290.802819</ele>
        <time>2025-09-13T15:59:59.584Z</time>
      </trkpt>
      <trkpt lat="45.65086" lon="4.71626">
        <ele>290.835026</ele>
        <time>2025-09-13T16:00:01.665Z</time>
      </trkpt>
      <trkpt lat="45.6508" lon="4.71624">
        <ele>290.866588</ele>
        <time>2025-09-13T16:00:03.679Z</time>
      </trkpt>
      <trkpt lat="45.65055" lon="4.7164">
        <ele>290.997675</ele>
        <time>2025-09-13T16:00:11.889Z</time>
      </trkpt>
      <trkpt lat="45.65039" lon="4.71641">
        <ele>291.072239</ele>
        <time>2025-09-13T16:00:16.489Z</time>
      </trkpt>
      <trkpt lat="45.65037" lon="4.71643">
        <ele>291.083865</ele>
        <time>2025-09-13T16:00:17.184Z</time>
      </trkpt>
      <trkpt lat="45.65013" lon="4.7166">
        <ele>291.212495</ele>
        <time>2025-09-13T16:00:24.712Z</time>
      </trkpt>
      <trkpt lat="45.64954" lon="4.71723">
        <ele>290.244237</ele>
        <time>2025-09-13T16:00:43.945Z</time>
      </trkpt>
      <trkpt lat="45.64909" lon="4.71757">
        <ele>289.109367</ele>
        <time>2025-09-13T16:00:56.583Z</time>
      </trkpt>
      <trkpt lat="45.64883" lon="4.71766">
        <ele>288.48405</ele>
        <time>2025-09-13T16:01:03.875Z</time>
      </trkpt>
      <trkpt lat="45.64852" lon="4.71756">
        <ele>287.781861</ele>
        <time>2025-09-13T16:01:12.535Z</time>
      </trkpt>
      <trkpt lat="45.64846" lon="4.71766">
        <ele>287.568207</ele>
        <time>2025-09-13T16:01:14.698Z</time>
      </trkpt>
      <trkpt lat="45.64838" lon="4.71777">
        <ele>287.312464</ele>
        <time>2025-09-13T16:01:17.326Z</time>
      </trkpt>
      <trkpt lat="45.64826" lon="4.71783">
        <ele>287.47156</ele>
        <time>2025-09-13T16:01:20.931Z</time>
      </trkpt>
      <trkpt lat="45.64774" lon="4.71736">
        <ele>288.790239</ele>
        <time>2025-09-13T16:01:39.773Z</time>
      </trkpt>
      <trkpt lat="45.64745" lon="4.71718">
        <ele>289.471503</ele>
        <time>2025-09-13T16:01:49.715Z</time>
      </trkpt>
      <trkpt lat="45.64703" lon="4.71702">
        <ele>290.387075</ele>
        <time>2025-09-13T16:02:03.684Z</time>
      </trkpt>
      <trkpt lat="45.64676" lon="4.71698">
        <ele>290.983022</ele>
        <time>2025-09-13T16:02:13.174Z</time>
      </trkpt>
      <trkpt lat="45.64661" lon="4.71688">
        <ele>291.669183</ele>
        <time>2025-09-13T16:02:18.654Z</time>
      </trkpt>
      <trkpt lat="45.64638" lon="4.71688">
        <ele>292.991938</ele>
        <time>2025-09-13T16:02:26.974Z</time>
      </trkpt>
      <trkpt lat="45.6463" lon="4.71682">
        <ele>293.522243</ele>
        <time>2025-09-13T16:02:30.409Z</time>
      </trkpt>
      <trkpt lat="45.64627" lon="4.71668">
        <ele>294.09714</ele>
        <time>2025-09-13T16:02:34.156Z</time>
      </trkpt>
      <trkpt lat="45.64638" lon="4.71518">
        <ele>300.071013</ele>
        <time>2025-09-13T16:03:14.563Z</time>
      </trkpt>
      <trkpt lat="45.64637" lon="4.71488">
        <ele>301.258008</ele>
        <time>2025-09-13T16:03:22.411Z</time>
      </trkpt>
      <trkpt lat="45.64518" lon="4.7144">
        <ele>306.306987</ele>
        <time>2025-09-13T16:04:04.003Z</time>
      </trkpt>
      <trkpt lat="45.64548" lon="4.7142">
        <ele>307.642402</ele>
        <time>2025-09-13T16:04:11.870Z</time>
      </trkpt>
      <trkpt lat="45.64585" lon="4.71378">
        <ele>309.703334</ele>
        <time>2025-09-13T16:04:23.530Z</time>
      </trkpt>
      <trkpt lat="45.64543" lon="4.71267">
        <ele>313.735241</ele>
        <time>2025-09-13T16:04:50.441Z</time>
      </trkpt>
      <trkpt lat="45.64527" lon="4.71216">
        <ele>315.507847</ele>
        <time>2025-09-13T16:05:03.569Z</time>
      </trkpt>
      <trkpt lat="45.64477" lon="4.71113">
        <ele>319.14044</ele>
        <time>2025-09-13T16:05:31.006Z</time>
      </trkpt>
      <trkpt lat="45.64427" lon="4.71163">
        <ele>321.548433</ele>
        <time>2025-09-13T16:05:51.478Z</time>
      </trkpt>
      <trkpt lat="45.64413" lon="4.71164">
        <ele>322.090328</ele>
        <time>2025-09-13T16:05:55.934Z</time>
      </trkpt>
      <trkpt lat="45.64402" lon="4.71159">
        <ele>322.537507</ele>
        <time>2025-09-13T16:05:59.569Z</time>
      </trkpt>
      <trkpt lat="45.64376" lon="4.71128">
        <ele>323.89297</ele>
        <time>2025-09-13T16:06:10.425Z</time>
      </trkpt>
      <trkpt lat="45.64341" lon="4.71115">
        <ele>324.844073</ele>
        <time>2025-09-13T16:06:21.700Z</time>
      </trkpt>
      <trkpt lat="45.64315" lon="4.71115">
        <ele>325.550901</ele>
        <time>2025-09-13T16:06:30.188Z</time>
      </trkpt>
      <trkpt lat="45.64286" lon="4.71099">
        <ele>326.375327</ele>
        <time>2025-09-13T16:06:40.140Z</time>
      </trkpt>
      <trkpt lat="45.64231" lon="4.71104">
        <ele>327.834596</ele>
        <time>2025-09-13T16:06:57.678Z</time>
      </trkpt>
      <trkpt lat="45.64206" lon="4.71101">
        <ele>328.501403</ele>
        <time>2025-09-13T16:07:05.558Z</time>
      </trkpt>
      <trkpt lat="45.64181" lon="4.71092">
        <ele>329.08742</ele>
        <time>2025-09-13T16:07:13.672Z</time>
      </trkpt>
      <trkpt lat="45.64128" lon="4.71083">
        <ele>330.207317</ele>
        <time>2025-09-13T16:07:30.217Z</time>
      </trkpt>
      <trkpt lat="45.64054" lon="4.71057">
        <ele>331.830942</ele>
        <time>2025-09-13T16:07:54.159Z</time>
      </trkpt>
      <trkpt lat="45.63995" lon="4.71028">
        <ele>333.58678</ele>
        <time>2025-09-13T16:08:13.882Z</time>
      </trkpt>
      <trkpt lat="45.63979" lon="4.71024">
        <ele>334.138512</ele>
        <time>2025-09-13T16:08:18.965Z</time>
      </trkpt>
      <trkpt lat="45.64009" lon="4.70968">
        <ele>335.868545</ele>
        <time>2025-09-13T16:08:35.474Z</time>
      </trkpt>
      <trkpt lat="45.64102" lon="4.70848">
        <ele>339.377791</ele>
        <time>2025-09-13T16:09:17.353Z</time>
      </trkpt>
      <trkpt lat="45.64105" lon="4.70844">
        <ele>339.431839</ele>
        <time>2025-09-13T16:09:18.660Z</time>
      </trkpt>
      <trkpt lat="45.64105" lon="4.70844">
        <ele>339.431839</ele>
        <time>2025-09-13T16:09:18.700Z</time>
      </trkpt>
      <trkpt lat="45.64096" lon="4.70832">
        <ele>339.599542</ele>
        <time>2025-09-13T16:09:23.996Z</time>
      </trkpt>
      <trkpt lat="45.64064" lon="4.7079">
        <ele>340.189089</ele>
        <time>2025-09-13T16:09:42.607Z</time>
      </trkpt>
      <trkpt lat="45.64054" lon="4.7078">
        <ele>340.358265</ele>
        <time>2025-09-13T16:09:47.947Z</time>
      </trkpt>
      <trkpt lat="45.64044" lon="4.70769">
        <ele>340.529878</ele>
        <time>2025-09-13T16:09:53.363Z</time>
      </trkpt>
      <trkpt lat="45.64033" lon="4.70757">
        <ele>340.707411</ele>
        <time>2025-09-13T16:09:58.967Z</time>
      </trkpt>
      <trkpt lat="45.64023" lon="4.70745">
        <ele>340.885087</ele>
        <time>2025-09-13T16:10:04.576Z</time>
      </trkpt>
      <trkpt lat="45.64014" lon="4.70733">
        <ele>341.051512</ele>
        <time>2025-09-13T16:10:09.829Z</time>
      </trkpt>
      <trkpt lat="45.64007" lon="4.70723">
        <ele>341.184545</ele>
        <time>2025-09-13T16:10:14.028Z</time>
      </trkpt>
      <trkpt lat="45.63999" lon="4.70713">
        <ele>341.166734</ele>
        <time>2025-09-13T16:10:18.799Z</time>
      </trkpt>
      <trkpt lat="45.6399" lon="4.70704">
        <ele>341.008379</ele>
        <time>2025-09-13T16:10:23.566Z</time>
      </trkpt>
      <trkpt lat="45.63981" lon="4.70693">
        <ele>340.849601</ele>
        <time>2025-09-13T16:10:28.345Z</time>
      </trkpt>
      <trkpt lat="45.63976" lon="4.70681">
        <ele>340.710369</ele>
        <time>2025-09-13T16:10:32.536Z</time>
      </trkpt>
      <trkpt lat="45.63966" lon="4.70677">
        <ele>340.570133</ele>
        <time>2025-09-13T16:10:36.757Z</time>
      </trkpt>
      <trkpt lat="45.63957" lon="4.70683">
        <ele>340.427131</ele>
        <time>2025-09-13T16:10:41.061Z</time>
      </trkpt>
      <trkpt lat="45.63949" lon="4.70689">
        <ele>340.298605</ele>
        <time>2025-09-13T16:10:44.930Z</time>
      </trkpt>
      <trkpt lat="45.63941" lon="4.70697">
        <ele>340.158027</ele>
        <time>2025-09-13T16:10:49.162Z</time>
      </trkpt>
      <trkpt lat="45.63932" lon="4.70703">
        <ele>340.012134</ele>
        <time>2025-09-13T16:10:53.553Z</time>
      </trkpt>
      <trkpt lat="45.63925" lon="4.70707">
        <ele>339.906432</ele>
        <time>2025-09-13T16:10:56.735Z</time>
      </trkpt>
      <trkpt lat="45.63925" lon="4.70707">
        <ele>339.906432</ele>
        <time>2025-09-13T16:10:56.749Z</time>
      </trkpt>
      <trkpt lat="45.6391" lon="4.7072">
        <ele>339.662196</ele>
        <time>2025-09-13T16:11:01.515Z</time>
      </trkpt>
      <trkpt lat="45.6385" lon="4.7082">
        <ele>338.469017</ele>
        <time>2025-09-13T16:11:27.325Z</time>
      </trkpt>
      <trkpt lat="45.63719" lon="4.71021">
        <ele>336.718929</ele>
        <time>2025-09-13T16:12:24.300Z</time>
      </trkpt>
      <trkpt lat="45.63703" lon="4.71038">
        <ele>336.565666</ele>
        <time>2025-09-13T16:12:30.255Z</time>
      </trkpt>
      <trkpt lat="45.63695" lon="4.71043">
        <ele>336.496765</ele>
        <time>2025-09-13T16:12:32.899Z</time>
      </trkpt>
      <trkpt lat="45.6369" lon="4.7104">
        <ele>336.45651</ele>
        <time>2025-09-13T16:12:34.463Z</time>
      </trkpt>
      <trkpt lat="45.63692" lon="4.71017">
        <ele>336.329814</ele>
        <time>2025-09-13T16:12:39.363Z</time>
      </trkpt>
      <trkpt lat="45.63679" lon="4.70899">
        <ele>335.686021</ele>
        <time>2025-09-13T16:13:04.172Z</time>
      </trkpt>
      <trkpt lat="45.6363" lon="4.70661">
        <ele>334.130672</ele>
        <time>2025-09-13T16:13:54.515Z</time>
      </trkpt>
      <trkpt lat="45.63592" lon="4.70553">
        <ele>334.44511</ele>
        <time>2025-09-13T16:14:19.815Z</time>
      </trkpt>
      <trkpt lat="45.63552" lon="4.70405">
        <ele>335.168222</ele>
        <time>2025-09-13T16:14:53.726Z</time>
      </trkpt>
      <trkpt lat="45.63515" lon="4.70112">
        <ele>338.80928</ele>
        <time>2025-09-13T16:15:58.716Z</time>
      </trkpt>
      <trkpt lat="45.63467" lon="4.69952">
        <ele>341.083372</ele>
        <time>2025-09-13T16:16:36.756Z</time>
      </trkpt>
      <trkpt lat="45.63458" lon="4.69812">
        <ele>343.234881</ele>
        <time>2025-09-13T16:17:07.452Z</time>
      </trkpt>
      <trkpt lat="45.63443" lon="4.6967">
        <ele>345.593045</ele>
        <time>2025-09-13T16:17:39.306Z</time>
      </trkpt>
      <trkpt lat="45.63423" lon="4.6961">
        <ele>346.661149</ele>
        <time>2025-09-13T16:17:54.117Z</time>
      </trkpt>
      <trkpt lat="45.63419" lon="4.69557">
        <ele>347.518138</ele>
        <time>2025-09-13T16:18:06.074Z</time>
      </trkpt>
      <trkpt lat="45.63426" lon="4.69527">
        <ele>348.016614</ele>
        <time>2025-09-13T16:18:13.045Z</time>
      </trkpt>
      <trkpt lat="45.63403" lon="4.69288">
        <ele>350.035959</ele>
        <time>2025-09-13T16:18:52.106Z</time>
      </trkpt>
      <trkpt lat="45.63199" lon="4.69362">
        <ele>348.87289</ele>
        <time>2025-09-13T16:19:51.673Z</time>
      </trkpt>
      <trkpt lat="45.63134" lon="4.69181">
        <ele>347.857242</ele>
        <time>2025-09-13T16:20:34.075Z</time>
      </trkpt>
      <trkpt lat="45.63132" lon="4.69176">
        <ele>347.841928</ele>
        <time>2025-09-13T16:20:35.282Z</time>
      </trkpt>
      <trkpt lat="45.63074" lon="4.69235">
        <ele>347.573113</ele>
        <time>2025-09-13T16:20:48.070Z</time>
      </trkpt>
      <trkpt lat="45.63051" lon="4.69162">
        <ele>347.384914</ele>
        <time>2025-09-13T16:21:04.759Z</time>
      </trkpt>
      <trkpt lat="45.6304" lon="4.69155">
        <ele>347.350996</ele>
        <time>2025-09-13T16:21:08.189Z</time>
      </trkpt>
      <trkpt lat="45.62934" lon="4.69192">
        <ele>347.029826</ele>
        <time>2025-09-13T16:21:40.713Z</time>
      </trkpt>
      <trkpt lat="45.62892" lon="4.69215">
        <ele>346.771228</ele>
        <time>2025-09-13T16:21:54.221Z</time>
      </trkpt>
      <trkpt lat="45.62745" lon="4.69312">
        <ele>344.777907</ele>
        <time>2025-09-13T16:22:41.240Z</time>
      </trkpt>
      <trkpt lat="45.62734" lon="4.69316">
        <ele>344.454334</ele>
        <time>2025-09-13T16:22:44.338Z</time>
      </trkpt>
      <trkpt lat="45.62679" lon="4.69324">
        <ele>342.352037</ele>
        <time>2025-09-13T16:22:52.746Z</time>
      </trkpt>
      <trkpt lat="45.62633" lon="4.6936">
        <ele>340.36592</ele>
        <time>2025-09-13T16:23:00.375Z</time>
      </trkpt>
      <trkpt lat="45.62615" lon="4.69376">
        <ele>339.546657</ele>
        <time>2025-09-13T16:23:03.475Z</time>
      </trkpt>
      <trkpt lat="45.62591" lon="4.69386">
        <ele>338.619341</ele>
        <time>2025-09-13T16:23:06.970Z</time>
      </trkpt>
      <trkpt lat="45.62573" lon="4.69386">
        <ele>337.934337</ele>
        <time>2025-09-13T16:23:09.557Z</time>
      </trkpt>
      <trkpt lat="45.62523" lon="4.69363">
        <ele>335.239676</ele>
        <time>2025-09-13T16:23:17.047Z</time>
      </trkpt>
      <trkpt lat="45.62407" lon="4.69299">
        <ele>328.746043</ele>
        <time>2025-09-13T16:23:34.669Z</time>
      </trkpt>
      <trkpt lat="45.62402" lon="4.693">
        <ele>328.518401</ele>
        <time>2025-09-13T16:23:35.303Z</time>
      </trkpt>
      <trkpt lat="45.62402" lon="4.693">
        <ele>328.518401</ele>
        <time>2025-09-13T16:23:35.331Z</time>
      </trkpt>
      <trkpt lat="45.62404" lon="4.69294">
        <ele>328.337532</ele>
        <time>2025-09-13T16:23:37.208Z</time>
      </trkpt>
      <trkpt lat="45.62395" lon="4.69284">
        <ele>327.863156</ele>
        <time>2025-09-13T16:23:42.130Z</time>
      </trkpt>
      <trkpt lat="45.62382" lon="4.69278">
        <ele>327.309852</ele>
        <time>2025-09-13T16:23:47.871Z</time>
      </trkpt>
      <trkpt lat="45.62367" lon="4.69273">
        <ele>326.661308</ele>
        <time>2025-09-13T16:23:54.599Z</time>
      </trkpt>
      <trkpt lat="45.6235" lon="4.69265">
        <ele>325.935791</ele>
        <time>2025-09-13T16:24:02.135Z</time>
      </trkpt>
      <trkpt lat="45.62334" lon="4.69259">
        <ele>325.246549</ele>
        <time>2025-09-13T16:24:09.286Z</time>
      </trkpt>
      <trkpt lat="45.6232" lon="4.69254">
        <ele>324.637836</ele>
        <time>2025-09-13T16:24:15.601Z</time>
      </trkpt>
      <trkpt lat="45.62295" lon="4.69242">
        <ele>323.543441</ele>
        <time>2025-09-13T16:24:26.949Z</time>
      </trkpt>
      <trkpt lat="45.62285" lon="4.69237">
        <ele>323.126414</ele>
        <time>2025-09-13T16:24:31.273Z</time>
      </trkpt>
      <trkpt lat="45.62279" lon="4.69226">
        <ele>322.741223</ele>
        <time>2025-09-13T16:24:35.267Z</time>
      </trkpt>
      <trkpt lat="45.62275" lon="4.69212">
        <ele>322.298192</ele>
        <time>2025-09-13T16:24:39.858Z</time>
      </trkpt>
      <trkpt lat="45.62273" lon="4.69213">
        <ele>322.229886</ele>
        <time>2025-09-13T16:24:40.566Z</time>
      </trkpt>
      <trkpt lat="45.62273" lon="4.69213">
        <ele>322.229886</ele>
        <time>2025-09-13T16:24:40.645Z</time>
      </trkpt>
      <trkpt lat="45.62265" lon="4.69187">
        <ele>321.397039</ele>
        <time>2025-09-13T16:24:44.177Z</time>
      </trkpt>
      <trkpt lat="45.62258" lon="4.69172">
        <ele>321.19421</ele>
        <time>2025-09-13T16:24:46.414Z</time>
      </trkpt>
      <trkpt lat="45.62247" lon="4.69156">
        <ele>321.387871</ele>
        <time>2025-09-13T16:24:49.337Z</time>
      </trkpt>
      <trkpt lat="45.6223" lon="4.69133">
        <ele>321.677022</ele>
        <time>2025-09-13T16:24:54.231Z</time>
      </trkpt>
      <trkpt lat="45.62214" lon="4.69108">
        <ele>321.961815</ele>
        <time>2025-09-13T16:24:58.899Z</time>
      </trkpt>
      <trkpt lat="45.62197" lon="4.6907">
        <ele>322.356025</ele>
        <time>2025-09-13T16:25:06.463Z</time>
      </trkpt>
      <trkpt lat="45.62228" lon="4.68997">
        <ele>323.085646</ele>
        <time>2025-09-13T16:25:25.417Z</time>
      </trkpt>
      <trkpt lat="45.62233" lon="4.68975">
        <ele>323.287648</ele>
        <time>2025-09-13T16:25:30.642Z</time>
      </trkpt>
      <trkpt lat="45.62232" lon="4.68951">
        <ele>323.634188</ele>
        <time>2025-09-13T16:25:35.862Z</time>
      </trkpt>
      <trkpt lat="45.62228" lon="4.68923">
        <ele>324.091905</ele>
        <time>2025-09-13T16:25:42.072Z</time>
      </trkpt>
      <trkpt lat="45.62199" lon="4.68798">
        <ele>326.239006</ele>
        <time>2025-09-13T16:26:11.189Z</time>
      </trkpt>
      <trkpt lat="45.62189" lon="4.68706">
        <ele>327.815846</ele>
        <time>2025-09-13T16:26:31.682Z</time>
      </trkpt>
      <trkpt lat="45.62192" lon="4.68688">
        <ele>328.177869</ele>
        <time>2025-09-13T16:26:35.602Z</time>
      </trkpt>
      <trkpt lat="45.62211" lon="4.68647">
        <ele>329.204572</ele>
        <time>2025-09-13T16:26:46.685Z</time>
      </trkpt>
      <trkpt lat="45.62216" lon="4.68632">
        <ele>329.544311</ele>
        <time>2025-09-13T16:26:50.360Z</time>
      </trkpt>
      <trkpt lat="45.62218" lon="4.68611">
        <ele>329.97997</ele>
        <time>2025-09-13T16:26:55.101Z</time>
      </trkpt>
      <trkpt lat="45.62215" lon="4.68589">
        <ele>330.444061</ele>
        <time>2025-09-13T16:27:00.160Z</time>
      </trkpt>
      <trkpt lat="45.62201" lon="4.68559">
        <ele>331.181254</ele>
        <time>2025-09-13T16:27:08.229Z</time>
      </trkpt>
      <trkpt lat="45.62196" lon="4.68483">
        <ele>332.742824</ele>
        <time>2025-09-13T16:27:25.497Z</time>
      </trkpt>
      <trkpt lat="45.62197" lon="4.68358">
        <ele>336.796479</ele>
        <time>2025-09-13T16:27:54.992Z</time>
      </trkpt>
      <trkpt lat="45.62196" lon="4.68336">
        <ele>337.499457</ele>
        <time>2025-09-13T16:28:00.248Z</time>
      </trkpt>
      <trkpt lat="45.62172" lon="4.68217">
        <ele>341.54903</ele>
        <time>2025-09-13T16:28:31.329Z</time>
      </trkpt>
      <trkpt lat="45.62171" lon="4.68121">
        <ele>344.730123</ele>
        <time>2025-09-13T16:28:56.082Z</time>
      </trkpt>
      <trkpt lat="45.62167" lon="4.68109">
        <ele>345.159084</ele>
        <time>2025-09-13T16:28:59.310Z</time>
      </trkpt>
      <trkpt lat="45.62145" lon="4.68073">
        <ele>346.774839</ele>
        <time>2025-09-13T16:29:11.203Z</time>
      </trkpt>
      <trkpt lat="45.62139" lon="4.68054">
        <ele>347.470457</ele>
        <time>2025-09-13T16:29:16.203Z</time>
      </trkpt>
      <trkpt lat="45.62137" lon="4.68024">
        <ele>348.470451</ele>
        <time>2025-09-13T16:29:23.254Z</time>
      </trkpt>
      <trkpt lat="45.62234" lon="4.67941">
        <ele>352.163772</ele>
        <time>2025-09-13T16:29:59.572Z</time>
      </trkpt>
      <trkpt lat="45.62236" lon="4.67933">
        <ele>352.320481</ele>
        <time>2025-09-13T16:30:01.310Z</time>
      </trkpt>
      <trkpt lat="45.62235" lon="4.67902">
        <ele>352.943236</ele>
        <time>2025-09-13T16:30:08.228Z</time>
      </trkpt>
      <trkpt lat="45.62291" lon="4.67738">
        <ele>356.677738</ele>
        <time>2025-09-13T16:30:48.858Z</time>
      </trkpt>
      <trkpt lat="45.62331" lon="4.6773">
        <ele>357.873316</ele>
        <time>2025-09-13T16:30:58.529Z</time>
      </trkpt>
      <trkpt lat="45.62338" lon="4.67728">
        <ele>358.113569</ele>
        <time>2025-09-13T16:31:00.503Z</time>
      </trkpt>
      <trkpt lat="45.62344" lon="4.67725">
        <ele>358.286563</ele>
        <time>2025-09-13T16:31:01.908Z</time>
      </trkpt>
      <trkpt lat="45.62307" lon="4.67667">
        <ele>359.935167</ele>
        <time>2025-09-13T16:31:15.416Z</time>
      </trkpt>
      <trkpt lat="45.62288" lon="4.67657">
        <ele>360.586534</ele>
        <time>2025-09-13T16:31:20.406Z</time>
      </trkpt>
      <trkpt lat="45.62221" lon="4.67632">
        <ele>362.888041</ele>
        <time>2025-09-13T16:31:37.967Z</time>
      </trkpt>
      <trkpt lat="45.62177" lon="4.67591">
        <ele>364.657118</ele>
        <time>2025-09-13T16:31:51.224Z</time>
      </trkpt>
      <trkpt lat="45.62154" lon="4.6758">
        <ele>365.461455</ele>
        <time>2025-09-13T16:31:57.119Z</time>
      </trkpt>
      <trkpt lat="45.62066" lon="4.67547">
        <ele>367.371193</ele>
        <time>2025-09-13T16:32:18.643Z</time>
      </trkpt>
      <trkpt lat="45.62054" lon="4.67543">
        <ele>367.58716</ele>
        <time>2025-09-13T16:32:21.534Z</time>
      </trkpt>
      <trkpt lat="45.62046" lon="4.67486">
        <ele>368.264622</ele>
        <time>2025-09-13T16:32:30.381Z</time>
      </trkpt>
      <trkpt lat="45.62045" lon="4.67473">
        <ele>368.422583</ele>
        <time>2025-09-13T16:32:32.382Z</time>
      </trkpt>
      <trkpt lat="45.62048" lon="4.67463">
        <ele>368.551893</ele>
        <time>2025-09-13T16:32:34.002Z</time>
      </trkpt>
      <trkpt lat="45.6206" lon="4.67453">
        <ele>368.784287</ele>
        <time>2025-09-13T16:32:36.843Z</time>
      </trkpt>
      <trkpt lat="45.62067" lon="4.67451">
        <ele>368.912695</ele>
        <time>2025-09-13T16:32:38.377Z</time>
      </trkpt>
      <trkpt lat="45.62083" lon="4.6746">
        <ele>369.191607</ele>
        <time>2025-09-13T16:32:41.623Z</time>
      </trkpt>
      <trkpt lat="45.62106" lon="4.67448">
        <ele>369.125147</ele>
        <time>2025-09-13T16:32:46.207Z</time>
      </trkpt>
      <trkpt lat="45.62111" lon="4.67441">
        <ele>369.084467</ele>
        <time>2025-09-13T16:32:47.582Z</time>
      </trkpt>
      <trkpt lat="45.6212" lon="4.67414">
        <ele>368.972079</ele>
        <time>2025-09-13T16:32:51.290Z</time>
      </trkpt>
      <trkpt lat="45.62117" lon="4.67408">
        <ele>368.946387</ele>
        <time>2025-09-13T16:32:52.123Z</time>
      </trkpt>
      <trkpt lat="45.62087" lon="4.67362">
        <ele>368.709696</ele>
        <time>2025-09-13T16:32:59.721Z</time>
      </trkpt>
      <trkpt lat="45.62043" lon="4.67289">
        <ele>368.346433</ele>
        <time>2025-09-13T16:33:11.228Z</time>
      </trkpt>
      <trkpt lat="45.62045" lon="4.67283">
        <ele>368.323662</ele>
        <time>2025-09-13T16:33:11.942Z</time>
      </trkpt>
      <trkpt lat="45.62043" lon="4.67275">
        <ele>368.29014</ele>
        <time>2025-09-13T16:33:13.024Z</time>
      </trkpt>
      <trkpt lat="45.62037" lon="4.67269">
        <ele>368.277485</ele>
        <time>2025-09-13T16:33:14.288Z</time>
      </trkpt>
      <trkpt lat="45.6203" lon="4.67273">
        <ele>368.277485</ele>
        <time>2025-09-13T16:33:15.576Z</time>
      </trkpt>
      <trkpt lat="45.62012" lon="4.67245">
        <ele>368.277485</ele>
        <time>2025-09-13T16:33:20.137Z</time>
      </trkpt>
      <trkpt lat="45.62004" lon="4.67234">
        <ele>368.277485</ele>
        <time>2025-09-13T16:33:22.040Z</time>
      </trkpt>
      <trkpt lat="45.61994" lon="4.67218">
        <ele>368.277485</ele>
        <time>2025-09-13T16:33:24.671Z</time>
      </trkpt>
      <trkpt lat="45.61967" lon="4.67178">
        <ele>368.277485</ele>
        <time>2025-09-13T16:33:31.530Z</time>
      </trkpt>
      <trkpt lat="45.61967" lon="4.67178">
        <ele>368.277485</ele>
        <time>2025-09-13T16:33:31.551Z</time>
      </trkpt>
      <trkpt lat="45.61971" lon="4.67174">
        <ele>368.277485</ele>
        <time>2025-09-13T16:33:33.596Z</time>
      </trkpt>
      <trkpt lat="45.61974" lon="4.67161">
        <ele>368.277485</ele>
        <time>2025-09-13T16:33:37.513Z</time>
      </trkpt>
      <trkpt lat="45.61981" lon="4.67152">
        <ele>368.277485</ele>
        <time>2025-09-13T16:33:41.383Z</time>
      </trkpt>
      <trkpt lat="45.61984" lon="4.6714">
        <ele>368.277485</ele>
        <time>2025-09-13T16:33:45.378Z</time>
      </trkpt>
      <trkpt lat="45.61973" lon="4.67145">
        <ele>368.277485</ele>
        <time>2025-09-13T16:33:50.281Z</time>
      </trkpt>
      <trkpt lat="45.61964" lon="4.67148">
        <ele>368.277485</ele>
        <time>2025-09-13T16:33:54.185Z</time>
      </trkpt>
    </trkseg>
  </trk>
</gpx>